CA932 / B-2485 7700 Squawk Report (20th of February, 2019)

Aircraft B748 Reg No. B-2485 Age 5 years old
Model 747 Jet engines 4 First flight 31-07-14
Registered 30-09-14 Rollout N/A Delivered 30-09-14
Construction No. 41191 Line No. 1499 Series 89L
ADSHEX 780CB6 Airline name Air China Owner N/A
Airfield based Beijing-Capital~Beijing~B First tracked 2017-07-13 10:55:00
Time Lat Lon Altitude Heading Speed Vertical Rate
2019-02-21 03:42:02 GMT 40.008434 116.625488 700 354 148 -768
2019-02-21 03:41:44 GMT 39.996845 116.627235 925 354 148 -768
2019-02-21 03:41:39 GMT 39.992844 116.627869 1,000 353 146 -704
2019-02-21 03:41:26 GMT 39.983871 116.629333 1,175 353 146 -768
2019-02-21 03:41:16 GMT 39.977646 116.630371 1,300 353 146 -768
2019-02-21 03:41:04 GMT 39.969238 116.631668 1,475 353 152 -960
We lost coverage of the aircraft here for a total of 14 minutes
2019-02-21 03:27:22 GMT 39.967712 116.747620 6,475 172 223 -704
2019-02-21 03:27:16 GMT 39.973381 116.746651 6,500 172 223 -704
2019-02-21 03:27:06 GMT 39.984043 116.744843 6,725 172 222 -1472
2019-02-21 03:26:43 GMT 40.007786 116.740913 7,325 172 224 -1472
2019-02-21 03:26:32 GMT 40.019283 116.738914 7,600 172 226 -1344
2019-02-21 03:26:21 GMT 40.030884 116.736938 7,825 172 228 -1216
2019-02-21 03:26:10 GMT 40.041687 116.735107 8,025 172 233 -1024
2019-02-21 03:25:58 GMT 40.053593 116.733170 8,225 172 239 -1088
2019-02-21 03:25:48 GMT 40.065765 116.731140 8,425 172 243 -1088
2019-02-21 03:25:37 GMT 40.079041 116.729004 8,625 172 250 -832
2019-02-21 03:25:24 GMT 40.094048 116.726555 8,800 172 258 -832
2019-02-21 03:25:15 GMT 40.105034 116.724808 8,950 173 266 -1024
2019-02-21 03:25:02 GMT 40.122208 116.721985 9,275 172 271 -1728
2019-02-21 03:24:52 GMT 40.134430 116.720032 9,600 173 270 -1920
2019-02-21 03:24:36 GMT 40.154160 116.716919 10,000 173 272 -1408
2019-02-21 03:24:29 GMT 40.162384 116.715508 10,150 172 272 -1280
2019-02-21 03:24:18 GMT 40.175537 116.713318 10,375 172 273 -1280
2019-02-21 03:24:03 GMT 40.195038 116.710266 10,725 173 274 -1280
2019-02-21 03:23:56 GMT 40.204102 116.708862 10,875 173 274 -1280
2019-02-21 03:23:44 GMT 40.218155 116.706787 11,125 173 275 -1216
2019-02-21 03:23:33 GMT 40.232025 116.704651 11,325 173 277 -1088
2019-02-21 03:23:22 GMT 40.247154 116.702209 11,550 172 279 -1216
2019-02-21 03:23:11 GMT 40.260887 116.699898 11,800 172 280 -1344
2019-02-21 03:23:00 GMT 40.274948 116.697777 12,050 173 280 -1344
2019-02-21 03:22:49 GMT 40.289154 116.695190 12,275 166 282 -1280
2019-02-21 03:22:38 GMT 40.303577 116.688477 12,525 151 285 -1216
2019-02-21 03:22:27 GMT 40.315403 116.677673 12,750 136 287 -832
2019-02-21 03:22:14 GMT 40.325775 116.661926 12,800 122 290 0
2019-02-21 03:22:02 GMT 40.332596 116.642944 12,800 107 289 128
2019-02-21 03:21:38 GMT 40.336349 116.598778 12,800 93 289 0
2019-02-21 03:21:30 GMT 40.336990 116.585327 12,800 93 289 0
2019-02-21 03:21:20 GMT 40.337887 116.568497 12,800 94 289 0
2019-02-21 03:21:09 GMT 40.339096 116.548523 12,800 94 288 0
2019-02-21 03:20:57 GMT 40.340149 116.529114 12,775 93 286 0
2019-02-21 03:20:46 GMT 40.340973 116.510620 12,800 93 285 -64
2019-02-21 03:20:35 GMT 40.341934 116.490845 12,800 93 285 64
2019-02-21 03:20:23 GMT 40.342850 116.472412 12,775 93 283 -128
2019-02-21 03:20:12 GMT 40.343987 116.450462 12,875 94 285 -512
2019-02-21 03:20:02 GMT 40.344963 116.431671 12,975 93 290 -512
2019-02-21 03:19:44 GMT 40.346512 116.401245 13,125 93 299 -576
2019-02-21 03:19:31 GMT 40.347748 116.376038 13,250 93 305 -576
2019-02-21 03:19:27 GMT 40.348068 116.369873 13,275 93 310 -576
2019-02-21 03:19:16 GMT 40.349060 116.349831 13,375 93 316 -576
2019-02-21 03:19:06 GMT 40.350082 116.328979 13,475 93 323 -512
2019-02-21 03:18:55 GMT 40.351109 116.308075 13,600 93 329 -832
2019-02-21 03:18:42 GMT 40.352280 116.283752 13,775 93 335 -896
2019-02-21 03:18:32 GMT 40.353424 116.260681 13,925 93 341 -896
2019-02-21 03:18:14 GMT 40.355251 116.223679 14,200 93 349 -832
2019-02-21 03:18:09 GMT 40.355762 116.213257 14,275 93 353 -896
2019-02-21 03:17:58 GMT 40.357018 116.189346 14,425 93 359 -832
2019-02-21 03:17:48 GMT 40.358093 116.167236 14,575 93 366 -832
2019-02-21 03:17:35 GMT 40.359283 116.141602 14,725 93 372 -832
2019-02-21 03:17:25 GMT 40.360558 116.114563 14,900 93 380 -896
2019-02-21 03:16:49 GMT 40.364410 116.031921 15,375 93 387 -768
2019-02-21 03:16:40 GMT 40.365280 116.012207 15,475 93 387 -768
2019-02-21 03:16:29 GMT 40.366516 115.986267 15,625 93 386 -960
2019-02-21 03:16:18 GMT 40.367706 115.959839 15,825 93 388 -1024
2019-02-21 03:16:06 GMT 40.368797 115.934853 16,000 93 392 -960
2019-02-21 03:15:56 GMT 40.370007 115.907509 16,200 93 393 -1024
We lost coverage of the aircraft here for a total of 190 minutes
2019-02-21 00:05:56 GMT 56.039818 85.297249 35,000 119 485 0
2019-02-21 00:05:39 GMT 56.058346 85.239143 35,000 119 485 0
2019-02-21 00:05:30 GMT 56.068680 85.206871 34,975 119 485 64
2019-02-21 00:05:26 GMT 56.072525 85.194733 34,975 119 485 64
2019-02-21 00:05:16 GMT 56.085663 85.153366 35,000 119 484 -64
2019-02-21 00:05:04 GMT 56.097061 85.117577 35,000 119 484 64
2019-02-21 00:04:53 GMT 56.108780 85.080704 35,000 119 484 0
2019-02-21 00:04:39 GMT 56.126823 85.023621 35,000 119 484 0
2019-02-21 00:04:34 GMT 56.130314 85.012466 35,000 119 484 0
2019-02-21 00:03:23 GMT 56.207657 84.766266 35,000 119 484 64
2019-02-21 00:02:50 GMT 56.245193 84.646080 35,000 119 484 64
2019-02-21 00:02:39 GMT 56.255772 84.612061 34,975 119 485 64
We lost coverage of the aircraft here for a total of 5 minutes
2019-02-20 23:57:24 GMT 56.597324 83.486259 34,975 118 487 0
2019-02-20 23:57:15 GMT 56.606598 83.455070 34,975 118 487 0
2019-02-20 23:56:59 GMT 56.624001 83.396156 34,975 118 487 0
2019-02-20 23:56:56 GMT 56.626328 83.388268 35,000 118 487 0
2019-02-20 23:56:43 GMT 56.640434 83.340340 35,000 118 487 0
2019-02-20 23:56:37 GMT 56.647091 83.317657 35,000 118 487 0
2019-02-20 23:55:54 GMT 56.692245 83.163933 35,000 117 488 0
2019-02-20 23:55:44 GMT 56.702908 83.127342 35,000 117 488 0
2019-02-20 23:55:30 GMT 56.717606 83.076981 35,000 117 488 0
2019-02-20 23:55:21 GMT 56.727116 83.044327 35,000 117 489 64
2019-02-20 23:55:14 GMT 56.735962 83.013901 35,000 117 489 0
2019-02-20 23:55:03 GMT 56.746059 82.978935 35,000 117 489 0
2019-02-20 23:54:52 GMT 56.757561 82.939339 35,000 117 489 0
2019-02-20 23:54:42 GMT 56.768372 82.901886 35,000 117 489 0
2019-02-20 23:54:31 GMT 56.779484 82.863319 35,000 117 489 0
2019-02-20 23:54:22 GMT 56.790344 82.825752 35,000 117 489 0
2019-02-20 23:52:26 GMT 56.909958 82.406647 35,000 117 487 0
2019-02-20 23:52:15 GMT 56.921402 82.366135 35,000 117 487 0
2019-02-20 23:52:07 GMT 56.930145 82.335060 35,000 117 487 0
2019-02-20 23:51:55 GMT 56.941208 82.295662 35,000 117 487 0
2019-02-20 23:51:45 GMT 56.952286 82.256233 35,000 117 486 0
2019-02-20 23:50:53 GMT 57.006454 82.065895 35,000 119 481 0
2019-02-20 23:50:43 GMT 57.018402 82.026413 34,975 119 481 0
2019-02-20 23:50:32 GMT 57.028198 81.995003 34,975 120 480 0
2019-02-20 23:50:22 GMT 57.040192 81.957581 35,000 120 479 0
2019-02-20 23:50:12 GMT 57.051086 81.923676 35,000 120 479 64
2019-02-20 23:48:41 GMT 57.153351 81.602928 35,000 120 481 64
2019-02-20 23:48:37 GMT 57.157722 81.589165 35,000 120 482 0
2019-02-20 23:46:53 GMT 57.275116 81.215401 35,000 119 494 -64
2019-02-20 23:46:36 GMT 57.294571 81.153000 35,000 119 495 0
2019-02-20 23:46:31 GMT 57.299240 81.138023 35,000 119 495 0
2019-02-20 23:46:20 GMT 57.310867 81.100731 35,000 119 495 0
2019-02-20 23:46:10 GMT 57.322906 81.061852 35,000 119 496 128
2019-02-20 23:45:59 GMT 57.335785 81.020271 35,000 119 496 64
We lost coverage of the aircraft here for a total of 41 minutes
2019-02-20 23:05:06 GMT 59.583481 71.164032 34,975 107 505 0
2019-02-20 23:03:26 GMT 59.653015 70.727417 34,975 107 503 0
2019-02-20 23:03:20 GMT 59.657181 70.700684 34,975 107 503 0
2019-02-20 23:03:12 GMT 59.663315 70.661774 34,975 107 503 0
2019-02-20 23:02:34 GMT 59.688580 70.499649 35,000 107 503 0
2019-02-20 23:02:30 GMT 59.691654 70.479851 35,000 107 503 -64
2019-02-20 23:02:04 GMT 59.709000 70.367432 35,000 106 503 0
2019-02-20 23:01:18 GMT 59.741138 70.157936 34,975 106 505 0
2019-02-20 23:01:07 GMT 59.747955 70.113190 35,000 106 506 -64
2019-02-20 23:00:57 GMT 59.755104 70.066254 34,975 106 506 64
2019-02-20 23:00:45 GMT 59.762283 70.018799 35,000 106 507 0
2019-02-20 23:00:35 GMT 59.768921 69.974854 35,000 106 507 0
2019-02-20 23:00:25 GMT 59.776146 69.926842 35,000 106 507 0
2019-02-20 23:00:15 GMT 59.782757 69.882896 34,975 106 506 0
2019-02-20 23:00:04 GMT 59.789795 69.835327 35,000 106 506 0
2019-02-20 22:59:54 GMT 59.796707 69.788544 34,975 106 506 64
2019-02-20 22:59:43 GMT 59.803574 69.742310 34,975 106 506 64
2019-02-20 22:59:33 GMT 59.810165 69.696442 34,975 105 505 0
2019-02-20 22:59:21 GMT 59.816849 69.644897 34,975 103 505 0
2019-02-20 22:59:11 GMT 59.822186 69.599907 35,000 102 504 0
2019-02-20 22:59:02 GMT 59.826874 69.556641 35,000 101 504 0
2019-02-20 22:58:50 GMT 59.831909 69.503998 34,975 99 503 -64
2019-02-20 22:58:42 GMT 59.835220 69.463615 34,975 98 502 64
2019-02-20 22:58:31 GMT 59.838989 69.415405 34,975 98 502 -64
2019-02-20 22:58:20 GMT 59.842712 69.368591 34,975 98 502 0
2019-02-20 22:58:10 GMT 59.846375 69.322357 34,975 98 501 -64
2019-02-20 22:58:00 GMT 59.850082 69.274658 34,975 98 500 0
2019-02-20 22:57:46 GMT 59.854774 69.214813 34,975 98 500 -64
2019-02-20 22:53:56 GMT 59.932251 68.157166 35,000 97 502 -64
2019-02-20 22:53:47 GMT 59.934750 68.121010 35,000 97 501 0
2019-02-20 22:51:19 GMT 59.979160 67.445068 34,975 97 499 0
2019-02-20 22:51:10 GMT 59.981689 67.404060 34,975 97 498 0
2019-02-20 22:51:00 GMT 59.984795 67.354919 35,000 97 498 0
2019-02-20 22:50:38 GMT 59.990753 67.259247 35,000 97 498 -64
2019-02-20 22:50:27 GMT 59.993916 67.208275 34,975 97 498 0
2019-02-20 22:50:18 GMT 59.996525 67.165405 35,000 96 498 0
2019-02-20 22:50:06 GMT 59.999542 67.116234 35,000 96 499 0
2019-02-20 22:49:54 GMT 60.002903 67.060059 34,975 96 499 64
2019-02-20 22:49:45 GMT 60.005402 67.018021 35,000 96 499 0
2019-02-20 22:49:35 GMT 60.008118 66.972855 34,975 96 499 0
We lost coverage of the aircraft here for a total of 17 minutes
2019-02-20 22:32:35 GMT 59.886566 62.290585 34,975 80 513 0
2019-02-20 22:29:05 GMT 59.803288 61.316212 34,975 79 517 64
2019-02-20 22:28:40 GMT 59.792633 61.197876 34,975 79 517 0
2019-02-20 22:28:34 GMT 59.790161 61.170776 35,000 79 517 -64
2019-02-20 22:28:25 GMT 59.786434 61.129826 35,000 79 517 64
2019-02-20 22:27:22 GMT 59.758827 60.830826 34,975 79 521 0
2019-02-20 22:26:55 GMT 59.747498 60.709442 35,000 79 521 -64
2019-02-20 22:26:52 GMT 59.745888 60.692551 35,000 79 521 0
2019-02-20 22:26:41 GMT 59.741180 60.642883 35,000 79 523 64
2019-02-20 22:26:15 GMT 59.729324 60.518646 35,000 79 525 0
2019-02-20 22:26:11 GMT 59.727173 60.496490 35,000 79 525 0
2019-02-20 22:26:00 GMT 59.722549 60.448425 35,000 79 526 0
2019-02-20 22:25:49 GMT 59.717724 60.398380 34,975 79 527 0
2019-02-20 22:25:39 GMT 59.713028 60.349731 34,975 79 527 -64
2019-02-20 22:25:28 GMT 59.708084 60.299103 35,000 78 527 0
We lost coverage of the aircraft here for a total of 40 minutes
2019-02-20 21:45:54 GMT 59.208347 48.837639 35,000 78 534 0
2019-02-20 21:45:45 GMT 59.203926 48.797195 34,975 77 534 0
2019-02-20 21:45:34 GMT 59.197906 48.745697 34,975 76 534 0
2019-02-20 21:45:25 GMT 59.192047 48.699921 35,000 75 535 0
2019-02-20 21:45:14 GMT 59.185822 48.654510 35,000 74 534 0
2019-02-20 21:45:04 GMT 59.179367 48.608185 35,000 74 533 0
2019-02-20 21:44:54 GMT 59.172318 48.558243 35,000 74 533 0
2019-02-20 21:44:44 GMT 59.165985 48.513351 35,000 74 534 0
2019-02-20 21:44:34 GMT 59.159142 48.464863 34,975 74 534 0
2019-02-20 21:44:24 GMT 59.151974 48.414570 34,975 74 533 0
2019-02-20 21:44:13 GMT 59.145309 48.367950 35,000 74 533 0
2019-02-20 21:44:02 GMT 59.138718 48.321808 34,975 74 533 0
2019-02-20 21:43:52 GMT 59.131531 48.271545 35,000 74 533 0
2019-02-20 21:43:41 GMT 59.124802 48.224487 35,000 74 533 -64
2019-02-20 21:43:31 GMT 59.117989 48.177036 35,000 74 533 0
2019-02-20 21:43:21 GMT 59.111614 48.132713 35,000 74 533 0
2019-02-20 21:43:12 GMT 59.104210 48.081570 35,000 74 535 0
2019-02-20 21:43:00 GMT 59.097473 48.034973 34,975 74 535 0
2019-02-20 21:42:51 GMT 59.090744 47.988831 35,000 74 535 0
2019-02-20 21:42:39 GMT 59.082096 47.929844 35,000 74 535 -64
2019-02-20 21:42:30 GMT 59.076931 47.894234 35,000 74 535 0
2019-02-20 21:42:20 GMT 59.069809 47.845837 35,000 74 535 0
2019-02-20 21:42:10 GMT 59.063152 47.800659 35,000 74 536 0
2019-02-20 21:41:59 GMT 59.055798 47.750748 35,000 73 536 0
2019-02-20 21:41:47 GMT 59.047230 47.693069 34,975 73 537 0
2019-02-20 21:41:38 GMT 59.041458 47.654240 34,975 73 537 64
2019-02-20 21:41:27 GMT 59.034027 47.604401 34,975 73 537 0
2019-02-20 21:41:17 GMT 59.027161 47.558258 35,000 73 537 -64
2019-02-20 21:41:06 GMT 59.019791 47.509003 35,000 73 536 0
2019-02-20 21:40:58 GMT 59.013573 47.467567 35,000 73 536 0
2019-02-20 21:40:47 GMT 59.006287 47.419189 35,000 73 535 0
2019-02-20 21:40:32 GMT 58.995975 47.351170 34,975 73 535 0
2019-02-20 21:40:25 GMT 58.990356 47.313995 34,975 73 534 0
2019-02-20 21:40:16 GMT 58.984200 47.273697 34,975 73 534 0
2019-02-20 21:40:06 GMT 58.977077 47.226910 34,975 73 535 0
2019-02-20 21:39:55 GMT 58.969803 47.179321 34,975 73 535 0
2019-02-20 21:39:43 GMT 58.961342 47.123867 34,975 73 535 0
2019-02-20 21:39:34 GMT 58.955475 47.085938 34,975 73 534 -64
2019-02-20 21:39:23 GMT 58.946274 47.026154 35,000 73 534 -64
2019-02-20 21:39:14 GMT 58.940674 46.990040 35,000 73 534 0
2019-02-20 21:39:03 GMT 58.933548 46.943939 35,000 73 534 0
2019-02-20 21:38:41 GMT 58.917892 46.843689 34,975 73 533 0
2019-02-20 21:38:29 GMT 58.909531 46.790394 35,000 73 533 -64
2019-02-20 21:38:22 GMT 58.903885 46.754517 35,000 73 533 0
2019-02-20 21:38:11 GMT 58.896240 46.705902 35,000 72 533 0
2019-02-20 21:37:51 GMT 58.881783 46.614704 35,000 72 532 0
2019-02-20 21:37:41 GMT 58.874149 46.566689 34,975 72 531 64
2019-02-20 21:37:30 GMT 58.866623 46.519684 34,975 72 531 0
2019-02-20 21:37:20 GMT 58.859951 46.478039 34,975 72 532 0
2019-02-20 21:37:11 GMT 58.852364 46.431065 34,975 72 531 -64
2019-02-20 21:37:03 GMT 58.847763 46.402130 35,000 72 531 0
2019-02-20 21:36:59 GMT 58.844776 46.383545 35,000 72 531 0
2019-02-20 21:36:53 GMT 58.839981 46.353790 35,000 72 532 0
2019-02-20 21:36:49 GMT 58.836777 46.333862 35,000 72 532 0
2019-02-20 21:36:40 GMT 58.829784 46.290527 35,000 72 532 0
2019-02-20 21:36:32 GMT 58.824829 46.259884 35,000 72 532 0
2019-02-20 21:36:29 GMT 58.822521 46.245392 35,000 72 532 0
2019-02-20 21:36:21 GMT 58.816727 46.209736 35,000 72 532 0
2019-02-20 21:36:18 GMT 58.814896 46.198483 35,000 72 532 0
2019-02-20 21:36:09 GMT 58.807388 46.152412 34,975 72 532 0
2019-02-20 21:35:58 GMT 58.799572 46.104584 35,000 72 532 0
2019-02-20 21:35:48 GMT 58.792099 46.058941 35,000 72 532 0
2019-02-20 21:35:37 GMT 58.782623 46.001171 35,000 72 532 0
2019-02-20 21:35:28 GMT 58.777496 45.969986 35,000 72 533 0
2019-02-20 21:35:18 GMT 58.769875 45.923492 35,000 72 533 0
2019-02-20 21:35:15 GMT 58.767452 45.908569 35,000 72 533 0
2019-02-20 21:35:07 GMT 58.761913 45.874695 35,000 72 533 0
2019-02-20 21:35:03 GMT 58.758820 45.855782 35,000 72 533 0
2019-02-20 21:34:55 GMT 58.752731 45.818748 34,975 72 533 64
2019-02-20 21:34:46 GMT 58.746002 45.777637 34,975 72 534 -64
2019-02-20 21:34:35 GMT 58.738171 45.729675 35,000 72 534 0
2019-02-20 21:34:24 GMT 58.730576 45.683102 35,000 72 534 0
2019-02-20 21:34:14 GMT 58.722946 45.636475 35,000 72 535 0
2019-02-20 21:34:03 GMT 58.714989 45.587494 35,000 72 535 0
2019-02-20 21:33:53 GMT 58.707169 45.539978 35,000 72 535 0
2019-02-20 21:33:42 GMT 58.699402 45.492878 34,975 72 536 0
2019-02-20 21:33:32 GMT 58.691525 45.445770 35,000 72 536 0
2019-02-20 21:33:22 GMT 58.683792 45.400204 35,000 71 536 0
2019-02-20 21:33:11 GMT 58.675323 45.352570 34,975 70 536 0
2019-02-20 21:33:01 GMT 58.666481 45.305695 35,000 70 536 0
2019-02-20 21:32:50 GMT 58.657608 45.258801 35,000 70 536 0
2019-02-20 21:32:38 GMT 58.647675 45.206177 35,000 69 536 -64
2019-02-20 21:32:30 GMT 58.639946 45.165619 35,000 69 536 0
2019-02-20 21:32:19 GMT 58.631104 45.119343 35,000 69 535 0
2019-02-20 21:32:09 GMT 58.622116 45.072144 35,000 69 535 0
2019-02-20 21:31:58 GMT 58.613087 45.024994 34,975 69 535 64
2019-02-20 21:31:47 GMT 58.603867 44.976963 34,975 69 536 0
2019-02-20 21:31:35 GMT 58.592976 44.920624 34,975 69 535 -64
2019-02-20 21:31:26 GMT 58.585785 44.883316 35,000 69 535 -64
2019-02-20 21:31:15 GMT 58.576859 44.837242 35,000 69 534 0
2019-02-20 21:31:05 GMT 58.567978 44.791702 34,975 69 534 0
2019-02-20 21:30:54 GMT 58.558594 44.743504 34,975 69 534 0
2019-02-20 21:30:43 GMT 58.549213 44.695312 35,000 69 534 0
2019-02-20 21:30:33 GMT 58.540371 44.649902 35,000 69 533 64
2019-02-20 21:30:22 GMT 58.530991 44.602188 35,000 69 535 -64
2019-02-20 21:30:12 GMT 58.522247 44.557625 35,000 69 535 0
2019-02-20 21:30:01 GMT 58.512905 44.510010 35,000 69 535 0
2019-02-20 21:29:51 GMT 58.503967 44.464508 34,975 69 534 64
2019-02-20 21:29:40 GMT 58.494736 44.417812 34,975 69 534 0
2019-02-20 21:29:31 GMT 58.485626 44.372040 35,000 69 534 0
2019-02-20 21:29:20 GMT 58.476700 44.327087 34,975 69 534 64
2019-02-20 21:29:10 GMT 58.467144 44.279205 34,975 69 533 0
2019-02-20 21:28:59 GMT 58.458160 44.233978 34,975 69 533 0
2019-02-20 21:28:48 GMT 58.449127 44.188843 35,000 69 533 0
2019-02-20 21:28:38 GMT 58.439896 44.142799 34,975 69 533 0
2019-02-20 21:28:27 GMT 58.430508 44.096008 35,000 69 533 0
2019-02-20 21:28:17 GMT 58.421104 44.049225 35,000 68 532 -64
2019-02-20 21:28:06 GMT 58.411884 44.003815 35,000 68 531 0
2019-02-20 21:27:55 GMT 58.402039 43.954971 35,000 68 531 0
2019-02-20 21:27:45 GMT 58.393173 43.911438 35,000 68 531 64
2019-02-20 21:27:35 GMT 58.384235 43.867493 34,975 68 530 -64
2019-02-20 21:27:25 GMT 58.374619 43.820122 35,000 68 530 0
2019-02-20 21:27:14 GMT 58.365520 43.775391 35,000 68 530 0
2019-02-20 21:27:04 GMT 58.356262 43.730282 34,975 68 530 64
2019-02-20 21:26:53 GMT 58.347061 43.685272 34,975 68 530 0
2019-02-20 21:26:43 GMT 58.337543 43.638977 35,000 68 529 0
2019-02-20 21:26:32 GMT 58.328186 43.593567 34,975 68 529 0
2019-02-20 21:26:22 GMT 58.319092 43.549538 34,975 68 528 -64
2019-02-20 21:26:11 GMT 58.309563 43.503387 35,000 68 528 0
2019-02-20 21:26:00 GMT 58.300186 43.458195 35,000 68 527 -64
2019-02-20 21:25:49 GMT 58.290619 43.412201 35,000 68 527 0
2019-02-20 21:25:40 GMT 58.281281 43.367023 35,000 68 527 0
2019-02-20 21:25:29 GMT 58.272278 43.324585 34,975 68 527 0
2019-02-20 21:25:19 GMT 58.262970 43.279930 34,975 68 528 0
2019-02-20 21:25:08 GMT 58.253448 43.234035 35,000 68 527 0
2019-02-20 21:24:58 GMT 58.244156 43.190269 35,000 68 527 0
2019-02-20 21:24:47 GMT 58.234222 43.143223 35,000 68 527 0
2019-02-20 21:24:36 GMT 58.224564 43.097416 35,000 68 526 0
2019-02-20 21:24:25 GMT 58.214905 43.051701 35,000 68 527 0
2019-02-20 21:24:15 GMT 58.205708 43.008545 35,000 68 527 0
2019-02-20 21:24:04 GMT 58.195816 42.962036 35,000 68 526 64
2019-02-20 21:23:54 GMT 58.186340 42.917736 34,975 68 527 0
2019-02-20 21:23:44 GMT 58.177094 42.874146 35,000 68 526 0
2019-02-20 21:23:33 GMT 58.166836 42.826080 35,000 67 526 0
2019-02-20 21:23:23 GMT 58.157913 42.784393 34,975 67 525 0
2019-02-20 21:23:13 GMT 58.148212 42.739288 34,975 67 525 0
2019-02-20 21:23:02 GMT 58.138905 42.695984 35,000 67 525 -64
2019-02-20 21:22:52 GMT 58.128845 42.649368 35,000 67 525 0
2019-02-20 21:22:41 GMT 58.119583 42.606537 35,000 67 525 0
2019-02-20 21:22:30 GMT 58.110077 42.562542 34,975 67 525 64
2019-02-20 21:22:20 GMT 58.100590 42.518921 34,975 67 525 64
2019-02-20 21:22:09 GMT 58.090485 42.472347 35,000 67 525 -64
2019-02-20 21:21:59 GMT 58.080826 42.427959 35,000 67 524 -64
2019-02-20 21:21:48 GMT 58.071404 42.384888 35,000 67 524 0
2019-02-20 21:21:38 GMT 58.061722 42.340668 35,000 67 524 0
2019-02-20 21:21:28 GMT 58.052315 42.297638 35,000 67 523 -64
2019-02-20 21:21:18 GMT 58.042309 42.252228 35,000 67 524 0
2019-02-20 21:21:07 GMT 58.032898 42.209293 35,000 67 524 0
2019-02-20 21:20:55 GMT 58.022339 42.161316 34,975 67 524 0
2019-02-20 21:20:45 GMT 58.013214 42.120117 35,000 67 524 -64
2019-02-20 21:20:35 GMT 58.003204 42.074799 35,000 67 523 0
2019-02-20 21:20:24 GMT 57.993439 42.030678 35,000 67 523 64
2019-02-20 21:20:14 GMT 57.983837 41.987457 34,975 67 524 64
2019-02-20 21:20:03 GMT 57.973938 41.942966 34,975 67 524 64
2019-02-20 21:19:53 GMT 57.964554 41.901058 34,975 67 524 64
2019-02-20 21:19:42 GMT 57.954346 41.855343 34,975 67 524 0
2019-02-20 21:19:33 GMT 57.944874 41.813049 35,000 67 523 -64
2019-02-20 21:19:22 GMT 57.934818 41.768372 35,000 67 523 0
2019-02-20 21:19:12 GMT 57.925140 41.725365 35,000 67 522 0
2019-02-20 21:19:00 GMT 57.915070 41.680801 34,975 67 522 0
2019-02-20 21:18:50 GMT 57.905350 41.637817 34,975 66 522 0
2019-02-20 21:18:40 GMT 57.895531 41.594604 35,000 66 522 -64
2019-02-20 21:18:29 GMT 57.885635 41.551357 35,000 66 522 0
2019-02-20 21:18:20 GMT 57.876022 41.509369 34,975 66 522 0
2019-02-20 21:18:09 GMT 57.865814 41.464973 34,975 66 521 -64
2019-02-20 21:17:58 GMT 57.855377 41.419785 35,000 66 522 0
2019-02-20 21:17:48 GMT 57.845531 41.377625 35,000 66 522 0
2019-02-20 21:17:37 GMT 57.835739 41.335793 35,000 66 522 0
2019-02-20 21:17:27 GMT 57.825668 41.292824 35,000 66 522 0
2019-02-20 21:17:16 GMT 57.814808 41.246613 34,975 66 522 0
2019-02-20 21:17:05 GMT 57.804108 41.201210 35,000 66 522 0
2019-02-20 21:16:55 GMT 57.793716 41.157089 34,975 66 522 64
2019-02-20 21:16:44 GMT 57.783691 41.114029 34,975 66 522 0
2019-02-20 21:16:33 GMT 57.773300 41.067425 35,000 68 522 -64
2019-02-20 21:16:23 GMT 57.763916 41.022949 35,000 68 522 0
2019-02-20 21:16:12 GMT 57.754707 40.979370 35,000 68 522 -64
2019-02-20 21:16:02 GMT 57.745445 40.935791 34,975 68 522 0
2019-02-20 21:15:51 GMT 57.736366 40.893036 34,975 68 522 0
2019-02-20 21:15:46 GMT 57.731644 40.870823 34,975 68 523 64
2019-02-20 21:15:40 GMT 57.726498 40.846546 34,975 68 522 0
2019-02-20 21:15:29 GMT 57.717041 40.802193 34,975 68 522 0
2019-02-20 21:15:19 GMT 57.708115 40.760307 34,975 68 523 0
2019-02-20 21:15:09 GMT 57.698101 40.713470 35,000 68 523 -64
2019-02-20 21:14:58 GMT 57.688648 40.669525 35,000 68 523 0
2019-02-20 21:14:47 GMT 57.678967 40.624340 35,000 68 523 0
2019-02-20 21:14:36 GMT 57.669617 40.580921 34,975 68 524 0
2019-02-20 21:14:26 GMT 57.660114 40.536980 35,000 68 524 0
2019-02-20 21:14:15 GMT 57.650711 40.493629 35,000 67 523 -64
2019-02-20 21:14:05 GMT 57.641258 40.449799 35,000 67 523 0
2019-02-20 21:13:55 GMT 57.631485 40.404713 35,000 67 523 64
2019-02-20 21:13:43 GMT 57.621780 40.360081 34,975 67 523 0
2019-02-20 21:13:34 GMT 57.612350 40.316734 34,975 67 523 64
2019-02-20 21:13:26 GMT 57.605507 40.285538 34,975 67 523 0
2019-02-20 21:13:23 GMT 57.603321 40.275524 34,975 67 522 0
2019-02-20 21:13:15 GMT 57.595963 40.241802 35,000 67 522 -64
2019-02-20 21:13:12 GMT 57.593403 40.230164 35,000 67 522 -64
2019-02-20 21:13:02 GMT 57.584141 40.187813 35,000 67 522 -64
2019-02-20 21:12:52 GMT 57.574722 40.144985 35,000 67 522 0
2019-02-20 21:12:45 GMT 57.568268 40.115547 35,000 67 522 64
2019-02-20 21:12:41 GMT 57.564869 40.100185 34,975 67 522 64
2019-02-20 21:12:31 GMT 57.555466 40.057480 35,000 67 522 0
2019-02-20 21:12:24 GMT 57.549225 40.029217 35,000 67 522 64
2019-02-20 21:12:20 GMT 57.545547 40.012650 35,000 67 522 0
2019-02-20 21:12:10 GMT 57.536179 39.970406 34,975 67 522 64
2019-02-20 21:12:02 GMT 57.528370 39.935215 34,975 67 522 0
2019-02-20 21:11:59 GMT 57.526508 39.926888 34,975 67 522 64
2019-02-20 21:11:49 GMT 57.517105 39.884624 34,975 67 522 0
2019-02-20 21:11:37 GMT 57.505692 39.833336 34,975 67 522 -64
2019-02-20 21:11:26 GMT 57.495598 39.788315 35,000 67 521 -64
2019-02-20 21:10:29 GMT 57.442795 39.553699 35,000 67 520 0
2019-02-20 21:10:25 GMT 57.438339 39.534035 35,000 67 520 0
2019-02-20 21:09:58 GMT 57.414185 39.427872 34,975 67 518 0
2019-02-20 21:09:53 GMT 57.410034 39.409908 34,975 67 518 0
2019-02-20 21:08:38 GMT 57.342224 39.096050 34,975 72 518 0
2019-02-20 21:08:27 GMT 57.334717 39.053135 34,975 72 518 -64
2019-02-20 21:08:04 GMT 57.319016 38.957176 35,000 73 517 64
2019-02-20 21:07:43 GMT 57.304176 38.866882 34,975 73 517 0
2019-02-20 21:07:35 GMT 57.298450 38.832329 35,000 72 517 0
2019-02-20 21:07:24 GMT 57.290955 38.787231 35,000 72 517 0
2019-02-20 21:07:15 GMT 57.284317 38.747234 34,975 72 516 0
2019-02-20 21:07:04 GMT 57.277081 38.703857 34,975 72 516 0
2019-02-20 21:06:52 GMT 57.268238 38.650879 35,000 72 516 -64
2019-02-20 21:06:40 GMT 57.260284 38.603382 35,000 72 517 0
2019-02-20 21:06:34 GMT 57.255249 38.573513 35,000 72 517 0
2019-02-20 21:06:23 GMT 57.247986 38.530293 35,000 72 517 0
2019-02-20 21:06:11 GMT 57.239685 38.481159 34,975 72 517 0
2019-02-20 21:06:02 GMT 57.232956 38.441250 35,000 72 517 0
2019-02-20 21:05:49 GMT 57.223732 38.386761 35,000 72 517 0
2019-02-20 21:05:40 GMT 57.217346 38.348980 35,000 72 517 0
2019-02-20 21:05:30 GMT 57.210526 38.308723 35,000 72 517 0
2019-02-20 21:05:23 GMT 57.205719 38.280575 35,000 72 517 0
2019-02-20 21:05:20 GMT 57.203342 38.266354 35,000 72 517 0
2019-02-20 21:05:10 GMT 57.195923 38.222721 35,000 72 518 0
2019-02-20 21:04:58 GMT 57.187702 38.174034 35,000 72 517 0
2019-02-20 21:04:49 GMT 57.181416 38.136734 34,975 72 517 64
2019-02-20 21:04:39 GMT 57.173176 38.088005 34,975 72 517 -64
2019-02-20 21:04:27 GMT 57.165436 38.041878 35,000 72 518 0
2019-02-20 21:04:17 GMT 57.158752 38.001965 35,000 72 518 0
2019-02-20 21:04:09 GMT 57.152088 37.962105 35,000 72 518 0
2019-02-20 21:04:01 GMT 57.146782 37.930565 35,000 72 518 0
2019-02-20 21:03:57 GMT 57.144974 37.919655 35,000 72 518 0
2019-02-20 21:03:53 GMT 57.141998 37.902061 35,000 72 518 0
2019-02-20 21:03:47 GMT 57.137238 37.873993 34,975 72 517 0
2019-02-20 21:03:41 GMT 57.132523 37.846272 34,975 72 517 0
2019-02-20 21:03:32 GMT 57.126858 37.813259 35,000 72 517 0
2019-02-20 21:03:26 GMT 57.122681 37.789452 35,000 69 516 0
2019-02-20 21:03:22 GMT 57.119202 37.770309 35,000 69 516 0
2019-02-20 21:03:03 GMT 57.104141 37.693737 35,000 69 514 0
2019-02-20 21:02:54 GMT 57.096226 37.654755 35,000 69 516 0
2019-02-20 21:02:08 GMT 57.057728 37.466125 34,975 69 515 0
2019-02-20 21:02:04 GMT 57.054375 37.449821 35,000 69 516 0
2019-02-20 21:01:57 GMT 57.049023 37.423687 35,000 69 515 0
2019-02-20 21:01:54 GMT 57.045254 37.405258 35,000 69 515 0
2019-02-20 21:01:42 GMT 57.036072 37.360809 34,975 69 514 0
2019-02-20 21:01:18 GMT 57.016068 37.263908 35,000 69 514 0
2019-02-20 21:00:38 GMT 56.981987 37.100121 35,000 69 514 0
2019-02-20 21:00:22 GMT 56.968826 37.037231 35,000 68 514 0
2019-02-20 21:00:14 GMT 56.962189 37.005646 35,000 68 514 0
2019-02-20 20:59:50 GMT 56.941208 36.906445 34,975 68 513 0
2019-02-20 20:59:44 GMT 56.935959 36.881790 35,000 68 513 0
2019-02-20 20:59:01 GMT 56.897865 36.703373 34,975 68 514 0
2019-02-20 20:58:49 GMT 56.888092 36.657745 35,000 68 513 0
2019-02-20 20:58:37 GMT 56.877991 36.610256 34,975 68 513 0
2019-02-20 20:58:27 GMT 56.869377 36.569057 35,000 69 512 0
2019-02-20 20:58:16 GMT 56.860474 36.526279 35,000 69 512 0
2019-02-20 20:57:55 GMT 56.843079 36.442337 35,000 69 512 0
2019-02-20 20:57:43 GMT 56.832825 36.393154 35,000 69 512 0
2019-02-20 20:57:34 GMT 56.825272 36.356937 35,000 69 512 0
2019-02-20 20:57:25 GMT 56.816940 36.317024 34,975 69 511 0
2019-02-20 20:57:14 GMT 56.808426 36.276424 35,000 69 511 0
2019-02-20 20:57:03 GMT 56.799412 36.233440 34,975 69 511 0
2019-02-20 20:56:59 GMT 56.796196 36.218204 34,975 68 511 0
2019-02-20 20:56:53 GMT 56.790115 36.189308 34,975 69 510 0
2019-02-20 20:56:44 GMT 56.782150 36.151714 34,975 68 511 0
2019-02-20 20:56:41 GMT 56.780930 36.146084 34,975 68 511 0
2019-02-20 20:56:35 GMT 56.775192 36.118839 34,975 68 510 -64
2019-02-20 20:56:32 GMT 56.773247 36.109669 34,975 68 510 -64
2019-02-20 20:56:24 GMT 56.766033 36.075645 34,975 68 510 -64
2019-02-20 20:56:18 GMT 56.760399 36.049332 35,000 68 509 0
2019-02-20 20:56:14 GMT 56.758026 36.038074 35,000 68 510 -64
2019-02-20 20:56:01 GMT 56.747040 35.986576 35,000 68 509 0
2019-02-20 20:55:50 GMT 56.737198 35.940311 35,000 68 509 0
2019-02-20 20:55:43 GMT 56.731071 35.911648 35,000 68 509 0
2019-02-20 20:55:30 GMT 56.720718 35.863407 35,000 68 510 0
2019-02-20 20:55:23 GMT 56.714172 35.833061 35,000 68 511 0
2019-02-20 20:55:19 GMT 56.705189 35.791241 34,975 68 511 0
2019-02-20 20:55:12 GMT 56.705189 35.791241 34,975 68 511 0
2019-02-20 20:55:02 GMT 56.696686 35.751656 34,975 68 511 0
2019-02-20 20:54:49 GMT 56.685310 35.699100 35,000 68 510 0
2019-02-20 20:54:42 GMT 56.679165 35.670746 34,975 68 511 0
2019-02-20 20:54:26 GMT 56.665054 35.605831 34,975 68 511 0
2019-02-20 20:54:23 GMT 56.648766 35.530849 34,975 68 513 0
2019-02-20 20:54:08 GMT 56.648766 35.530849 34,975 68 513 0
2019-02-20 20:53:44 GMT 56.628654 35.438618 35,000 68 513 64
2019-02-20 20:53:36 GMT 56.621395 35.405479 35,000 68 514 0
2019-02-20 20:53:29 GMT 56.615524 35.378723 35,000 68 514 0
2019-02-20 20:53:19 GMT 56.607056 35.339916 35,000 68 514 0
2019-02-20 20:52:54 GMT 56.584896 35.238991 35,000 68 513 0
2019-02-20 20:52:23 GMT 56.553543 35.097656 35,000 68 513 -64
2019-02-20 20:52:14 GMT 56.549377 35.078930 35,000 68 513 0
2019-02-20 20:52:08 GMT 56.544209 35.055916 35,000 66 512 0
2019-02-20 20:51:45 GMT 56.522938 34.966824 35,000 65 511 0
2019-02-20 20:51:39 GMT 56.515457 34.938354 34,975 63 510 0
2019-02-20 20:51:24 GMT 56.499756 34.882591 35,000 62 509 0
2019-02-20 20:51:15 GMT 56.491241 34.854210 34,975 60 509 0
2019-02-20 20:51:04 GMT 56.477501 34.810780 34,975 60 508 0
2019-02-20 20:50:45 GMT 56.454208 34.737770 35,000 60 507 -64
2019-02-20 20:50:42 GMT 56.452332 34.731945 35,000 59 507 0
2019-02-20 20:50:30 GMT 56.438782 34.689499 34,975 59 507 -64
2019-02-20 20:50:19 GMT 56.425407 34.647789 34,975 59 507 0
2019-02-20 20:50:06 GMT 56.409576 34.598526 35,000 59 507 -64
2019-02-20 20:49:54 GMT 56.396267 34.556980 34,975 59 506 0
2019-02-20 20:49:46 GMT 56.386963 34.528198 35,000 59 506 0
2019-02-20 20:49:39 GMT 56.378300 34.501274 35,000 59 506 0
2019-02-20 20:49:10 GMT 56.337387 34.374557 35,000 59 506 0
2019-02-20 20:48:54 GMT 56.324570 34.334938 35,000 59 507 -64
2019-02-20 20:48:38 GMT 56.306763 34.280090 35,000 59 507 0
2019-02-20 20:47:16 GMT 56.208847 33.984749 35,000 58 508 0
2019-02-20 20:46:54 GMT 56.182159 33.905056 34,975 58 508 -64
2019-02-20 20:44:37 GMT 56.014816 33.411572 35,000 58 510 0
2019-02-20 20:44:00 GMT 55.969025 33.276089 35,000 58 510 0
2019-02-20 20:43:44 GMT 55.950806 33.222324 34,975 58 509 64
2019-02-20 20:43:39 GMT 55.941376 33.194691 35,000 58 510 -64
2019-02-20 20:43:23 GMT 55.925392 33.147724 35,000 58 509 0
2019-02-20 20:43:16 GMT 55.915878 33.119785 35,000 58 509 0
2019-02-20 20:42:42 GMT 55.875069 32.999241 34,975 59 510 -64
2019-02-20 20:42:34 GMT 55.865154 32.968254 35,000 60 511 -64
2019-02-20 20:42:22 GMT 55.852432 32.926609 35,000 62 511 64
2019-02-20 20:42:13 GMT 55.841629 32.889736 34,975 63 512 -64
2019-02-20 20:42:02 GMT 55.830563 32.849808 35,000 64 513 0
2019-02-20 20:41:48 GMT 55.815445 32.792774 34,975 64 512 -64
2019-02-20 20:41:40 GMT 55.808498 32.766552 35,000 64 512 0
2019-02-20 20:41:29 GMT 55.797546 32.725609 35,000 64 512 0
2019-02-20 20:41:19 GMT 55.786240 32.683163 34,975 64 512 64
2019-02-20 20:41:08 GMT 55.776749 32.647591 34,975 64 511 0
2019-02-20 20:40:57 GMT 55.765205 32.604420 35,000 64 511 -64
2019-02-20 20:40:43 GMT 55.745499 32.530849 35,000 64 510 -64
2019-02-20 20:40:32 GMT 55.738670 32.505543 35,000 64 510 0
2019-02-20 20:40:21 GMT 55.728336 32.467175 35,000 64 509 64
2019-02-20 20:40:10 GMT 55.717438 32.426979 34,975 64 509 0
2019-02-20 20:40:00 GMT 55.706364 32.386066 34,975 64 508 64
2019-02-20 20:39:47 GMT 55.694214 32.341175 34,975 64 508 -128
2019-02-20 20:39:39 GMT 55.685089 32.307529 35,000 64 507 0
2019-02-20 20:39:27 GMT 55.673492 32.265015 34,975 64 507 0
2019-02-20 20:39:17 GMT 55.663330 32.227730 34,975 64 506 0
2019-02-20 20:39:07 GMT 55.652481 32.187943 34,975 64 506 -64
2019-02-20 20:38:51 GMT 55.636551 32.129517 35,000 64 506 -64
2019-02-20 20:38:44 GMT 55.630577 32.107544 35,000 64 506 0
2019-02-20 20:38:35 GMT 55.619869 32.068577 34,975 64 505 0
2019-02-20 20:38:23 GMT 55.608948 32.028893 35,000 64 505 0
2019-02-20 20:38:13 GMT 55.598465 31.990688 35,000 64 505 -64
2019-02-20 20:38:02 GMT 55.587421 31.950645 35,000 64 505 0
2019-02-20 20:37:52 GMT 55.576714 31.911764 34,975 63 506 0
2019-02-20 20:37:42 GMT 55.565681 31.871681 34,975 63 506 0
2019-02-20 20:37:30 GMT 55.554974 31.833229 35,000 63 505 -64
2019-02-20 20:37:20 GMT 55.544128 31.794018 35,000 63 505 0
2019-02-20 20:37:10 GMT 55.533554 31.755981 34,975 63 505 0
2019-02-20 20:36:59 GMT 55.522568 31.716532 34,975 63 505 0
2019-02-20 20:36:48 GMT 55.511681 31.677446 34,975 63 504 0
2019-02-20 20:36:38 GMT 55.500694 31.638050 34,975 63 504 -64
2019-02-20 20:36:28 GMT 55.489525 31.597967 34,975 63 504 -64
2019-02-20 20:36:16 GMT 55.478863 31.559687 34,975 63 504 0
2019-02-20 20:35:56 GMT 55.451534 31.462269 34,975 63 505 0
2019-02-20 20:35:40 GMT 55.441086 31.425180 35,000 63 504 -64
2019-02-20 20:35:29 GMT 55.429749 31.384859 35,000 63 504 -64
2019-02-20 20:35:18 GMT 55.418530 31.345325 35,000 63 504 0
2019-02-20 20:35:08 GMT 55.407124 31.305042 35,000 63 504 0
2019-02-20 20:34:56 GMT 55.395538 31.264423 34,975 63 504 0
2019-02-20 20:34:46 GMT 55.384598 31.226053 34,975 63 504 0
2019-02-20 20:34:34 GMT 55.373096 31.185858 35,000 63 504 -64
2019-02-20 20:34:23 GMT 55.361801 31.146402 35,000 63 504 -64
2019-02-20 20:34:12 GMT 55.349945 31.105122 35,000 63 504 -64
2019-02-20 20:34:02 GMT 55.338913 31.066427 35,000 63 505 -64
2019-02-20 20:33:51 GMT 55.327332 31.025795 35,000 63 505 0
2019-02-20 20:33:40 GMT 55.316208 30.987104 34,975 63 506 64
2019-02-20 20:33:29 GMT 55.304897 30.946156 34,975 66 507 0
2019-02-20 20:33:26 GMT 55.301964 30.934504 34,975 67 507 0
2019-02-20 20:33:17 GMT 55.294876 30.903652 34,975 69 508 0
We lost coverage of the aircraft here for a total of 6 minutes
2019-02-20 20:26:49 GMT 55.165287 29.320095 35,000 81 507 64
2019-02-20 20:26:43 GMT 55.163406 29.296984 35,000 81 507 64
2019-02-20 20:26:33 GMT 55.160019 29.255623 35,000 81 507 0
2019-02-20 20:26:23 GMT 55.156628 29.213896 34,975 81 507 0
2019-02-20 20:24:58 GMT 55.127907 28.870239 34,975 81 506 -64
2019-02-20 20:24:48 GMT 55.124695 28.831537 35,000 81 506 -128
2019-02-20 20:24:38 GMT 55.121155 28.789995 35,000 81 506 0
2019-02-20 20:24:27 GMT 55.117386 28.746477 35,000 81 506 64
2019-02-20 20:24:17 GMT 55.114014 28.707438 35,000 81 506 0
2019-02-20 20:24:07 GMT 55.110355 28.665077 34,975 81 506 0
2019-02-20 20:23:56 GMT 55.106552 28.621567 34,975 81 505 0
2019-02-20 20:23:45 GMT 55.102844 28.579317 34,975 81 505 0
2019-02-20 20:23:35 GMT 55.099041 28.536322 34,975 81 505 0
2019-02-20 20:23:24 GMT 55.095226 28.493292 34,975 81 504 0
2019-02-20 20:23:14 GMT 55.091583 28.451923 34,975 81 505 -64
2019-02-20 20:23:03 GMT 55.087967 28.410482 35,000 81 505 -64
2019-02-20 20:22:33 GMT 55.077209 28.289461 35,000 81 506 0
2019-02-20 20:22:29 GMT 55.075653 28.272184 35,000 81 506 0
2019-02-20 20:22:20 GMT 55.072449 28.236399 35,000 81 506 0
2019-02-20 20:20:48 GMT 55.038200 27.864906 34,975 80 508 -64
2019-02-20 20:20:44 GMT 55.036880 27.850746 34,975 80 508 0
2019-02-20 20:20:33 GMT 55.032612 27.804731 35,000 80 509 -64
2019-02-20 20:20:25 GMT 55.029587 27.772438 35,000 80 509 -64
2019-02-20 20:20:15 GMT 55.026001 27.734486 35,000 80 509 -64
2019-02-20 20:20:05 GMT 55.022137 27.693287 35,000 80 509 0
2019-02-20 20:19:54 GMT 55.017857 27.648426 35,000 80 509 0
2019-02-20 20:19:43 GMT 55.013664 27.604399 34,975 80 509 64
2019-02-20 20:19:33 GMT 55.009617 27.562450 34,975 80 508 0
2019-02-20 20:19:19 GMT 55.004311 27.506853 34,975 80 507 0
2019-02-20 20:19:09 GMT 55.000397 27.466654 34,975 80 507 0
2019-02-20 20:18:59 GMT 54.996395 27.424871 35,000 80 506 0
2019-02-20 20:18:48 GMT 54.992298 27.382923 34,975 80 505 64
2019-02-20 20:18:37 GMT 54.988064 27.340227 34,975 80 503 0
2019-02-20 20:18:27 GMT 54.983917 27.297632 34,975 80 502 -64
2019-02-20 20:18:17 GMT 54.979935 27.257242 34,975 80 501 -64
2019-02-20 20:18:06 GMT 54.975773 27.215300 35,000 80 499 0
2019-02-20 20:17:55 GMT 54.971512 27.172745 35,000 80 498 0
2019-02-20 20:17:45 GMT 54.967529 27.132595 34,975 80 498 0
2019-02-20 20:17:35 GMT 54.963364 27.091316 34,975 80 497 0
2019-02-20 20:17:21 GMT 54.958267 27.040268 34,975 80 496 -64
2019-02-20 20:17:11 GMT 54.954170 26.999483 35,000 80 495 0
2019-02-20 20:17:01 GMT 54.950073 26.958868 35,000 80 495 0
2019-02-20 20:16:50 GMT 54.945831 26.917473 35,000 79 494 0
2019-02-20 20:16:39 GMT 54.941254 26.872559 35,000 79 494 0
2019-02-20 20:16:29 GMT 54.937454 26.835157 35,000 79 493 0
2019-02-20 20:16:15 GMT 54.931828 26.780256 35,000 79 493 0
2019-02-20 20:16:08 GMT 54.929218 26.755037 34,975 79 492 0
2019-02-20 20:15:52 GMT 54.922607 26.691366 35,000 79 491 -64
2019-02-20 20:15:46 GMT 54.920059 26.666969 35,000 79 491 0
2019-02-20 20:15:33 GMT 54.915024 26.618500 35,000 79 491 0
2019-02-20 20:15:25 GMT 54.911808 26.587914 35,000 79 491 0
2019-02-20 20:15:22 GMT 54.910675 26.577059 35,000 79 490 0
2019-02-20 20:15:16 GMT 54.907883 26.550402 34,975 79 491 0
2019-02-20 20:15:12 GMT 54.906597 26.537975 34,975 79 491 0
2019-02-20 20:15:05 GMT 54.903671 26.510899 34,975 79 491 0
2019-02-20 20:15:02 GMT 54.902267 26.497774 34,975 79 491 0
2019-02-20 20:14:52 GMT 54.898075 26.458324 34,975 79 491 -64
2019-02-20 20:14:45 GMT 54.895386 26.432863 35,000 79 491 -64
2019-02-20 20:14:41 GMT 54.893738 26.417435 35,000 79 490 -64
2019-02-20 20:14:34 GMT 54.890907 26.391157 35,000 79 490 -64
2019-02-20 20:14:31 GMT 54.889420 26.376842 35,000 79 490 -64
2019-02-20 20:14:24 GMT 54.886826 26.352970 35,000 79 490 -64
2019-02-20 20:14:20 GMT 54.885178 26.337460 34,975 79 491 0
2019-02-20 20:14:17 GMT 54.883530 26.322029 34,975 79 491 64
2019-02-20 20:14:10 GMT 54.880875 26.297312 34,975 79 490 0
2019-02-20 20:14:07 GMT 54.879776 26.286890 34,975 79 490 0
2019-02-20 20:13:57 GMT 54.875267 26.245256 34,975 79 490 0
2019-02-20 20:13:46 GMT 54.870937 26.205139 34,975 79 490 -64
2019-02-20 20:13:43 GMT 54.869678 26.193237 34,975 79 490 -64
2019-02-20 20:13:36 GMT 54.866684 26.165476 35,000 79 490 -64
2019-02-20 20:13:28 GMT 54.863487 26.135809 35,000 79 489 -64
2019-02-20 20:13:25 GMT 54.862278 26.124657 35,000 79 490 -64
2019-02-20 20:13:18 GMT 54.859253 26.096523 35,000 79 490 0
2019-02-20 20:13:07 GMT 54.854877 26.056074 35,000 79 489 0
2019-02-20 20:13:03 GMT 54.852501 26.034185 34,975 79 490 0
2019-02-20 20:12:57 GMT 54.850433 26.014898 35,000 79 490 -64
2019-02-20 20:12:54 GMT 54.849289 26.004477 35,000 79 490 -64
2019-02-20 20:12:47 GMT 54.846085 25.975233 35,000 79 490 -64
2019-02-20 20:12:44 GMT 54.845055 25.965605 35,000 79 490 -64
2019-02-20 20:12:40 GMT 54.842743 25.944374 35,000 79 490 -64
2019-02-20 20:12:34 GMT 54.840820 25.926683 35,000 79 490 0
2019-02-20 20:12:29 GMT 54.838669 25.907055 35,000 79 490 0
2019-02-20 20:12:24 GMT 54.836334 25.886293 35,000 79 490 0
2019-02-20 20:12:13 GMT 54.831894 25.846226 34,975 79 490 0
2019-02-20 20:12:03 GMT 54.827644 25.807301 34,975 78 491 64
2019-02-20 20:12:00 GMT 54.826309 25.795736 34,975 77 488 0
2019-02-20 20:11:53 GMT 54.822876 25.768675 34,975 76 486 0
2019-02-20 20:11:49 GMT 54.821079 25.755449 35,000 76 485 -64
2019-02-20 20:11:40 GMT 54.815166 25.715748 34,975 74 482 0
2019-02-20 20:11:32 GMT 54.811165 25.691778 34,975 72 478 0
2019-02-20 20:11:29 GMT 54.808823 25.678602 34,975 71 477 -64
2019-02-20 20:11:21 GMT 54.803513 25.651136 34,975 70 475 -64
2019-02-20 20:11:13 GMT 54.797653 25.623428 34,975 69 473 0
2019-02-20 20:11:10 GMT 54.795055 25.611378 35,000 69 473 0
2019-02-20 20:11:00 GMT 54.787628 25.577061 35,000 69 473 -64
2019-02-20 20:10:50 GMT 54.779572 25.539982 35,000 69 472 -64
2019-02-20 20:10:39 GMT 54.771606 25.503307 34,975 69 471 64
2019-02-20 20:10:31 GMT 54.764565 25.470886 34,975 69 471 0
2019-02-20 20:10:19 GMT 54.756233 25.432602 34,975 69 471 0
2019-02-20 20:10:10 GMT 54.748810 25.398533 34,975 69 470 0
2019-02-20 20:10:00 GMT 54.741055 25.363188 34,975 69 469 0
2019-02-20 20:09:55 GMT 54.737778 25.348125 35,000 69 469 0
2019-02-20 20:09:50 GMT 54.733337 25.327848 34,975 69 468 0
2019-02-20 20:09:44 GMT 54.729511 25.310335 34,975 69 467 0
2019-02-20 20:09:39 GMT 54.725273 25.291193 34,975 69 467 0
2019-02-20 20:09:35 GMT 54.722202 25.277294 34,975 69 466 -64
2019-02-20 20:09:29 GMT 54.717545 25.256035 35,000 69 466 -64
2019-02-20 20:09:20 GMT 54.711227 25.227276 35,000 69 466 -64
2019-02-20 20:09:17 GMT 54.708748 25.216120 35,000 69 465 -64
2019-02-20 20:09:11 GMT 54.704185 25.195396 35,000 69 465 -64
2019-02-20 20:09:08 GMT 54.701672 25.183910 35,000 69 465 -64
2019-02-20 20:09:03 GMT 54.698181 25.168062 35,000 69 464 0
2019-02-20 20:08:58 GMT 54.693970 25.148998 35,000 69 463 0
2019-02-20 20:08:52 GMT 54.689754 25.130060 35,000 69 463 0
2019-02-20 20:08:47 GMT 54.685520 25.110750 35,000 69 462 0
2019-02-20 20:08:43 GMT 54.682388 25.096651 34,975 69 462 0
2019-02-20 20:08:37 GMT 54.678257 25.078041 34,975 69 461 0
2019-02-20 20:08:31 GMT 54.673920 25.058521 35,000 69 461 0
2019-02-20 20:08:27 GMT 54.670250 25.042088 34,975 69 460 0
2019-02-20 20:08:23 GMT 54.666477 25.024940 34,975 69 460 0
2019-02-20 20:08:16 GMT 54.662056 25.005133 34,975 69 460 -64
2019-02-20 20:08:11 GMT 54.658401 24.988726 35,000 69 459 -64
2019-02-20 20:08:01 GMT 54.651169 24.955929 35,000 69 459 0
2019-02-20 20:07:52 GMT 54.643063 24.919489 34,975 69 458 0
2019-02-20 20:07:46 GMT 54.638580 24.899382 35,000 69 458 0
2019-02-20 20:07:41 GMT 54.635475 24.885448 35,000 68 457 0
2019-02-20 20:07:35 GMT 54.630867 24.864723 34,975 68 457 0
2019-02-20 20:07:31 GMT 54.627731 24.850752 35,000 68 457 0
2019-02-20 20:07:24 GMT 54.622879 24.829021 35,000 68 457 0
2019-02-20 20:07:21 GMT 54.619926 24.815784 35,000 68 457 0
2019-02-20 20:07:14 GMT 54.615326 24.795092 35,000 68 456 0
2019-02-20 20:07:10 GMT 54.612061 24.780495 35,000 68 456 0
2019-02-20 20:07:05 GMT 54.607407 24.759872 35,000 68 456 0
2019-02-20 20:07:00 GMT 54.604340 24.746382 35,000 68 455 0
2019-02-20 20:06:53 GMT 54.599026 24.722734 35,000 68 454 0
2019-02-20 20:06:50 GMT 54.596416 24.711330 35,000 68 454 0
2019-02-20 20:06:43 GMT 54.591797 24.690884 35,000 68 452 0
2019-02-20 20:06:38 GMT 54.587994 24.674128 35,000 68 450 0
2019-02-20 20:06:33 GMT 54.583614 24.654902 35,000 68 447 0
2019-02-20 20:06:28 GMT 54.580353 24.640718 35,000 68 445 0
2019-02-20 20:06:22 GMT 54.575546 24.619635 35,000 68 443 0
2019-02-20 20:06:18 GMT 54.572910 24.608210 34,975 68 442 -64
2019-02-20 20:06:13 GMT 54.568161 24.587236 34,975 68 442 0
2019-02-20 20:06:08 GMT 54.565323 24.574835 35,000 68 442 0
2019-02-20 20:06:02 GMT 54.560532 24.553879 34,975 68 441 64
2019-02-20 20:05:58 GMT 54.557732 24.541460 34,975 68 442 0
2019-02-20 20:05:51 GMT 54.552933 24.520596 34,975 68 442 0
2019-02-20 20:05:47 GMT 54.549725 24.506502 34,975 68 443 0
2019-02-20 20:05:41 GMT 54.545151 24.486588 34,975 68 443 0
2019-02-20 20:05:38 GMT 54.542130 24.473499 34,975 68 443 0
2019-02-20 20:05:31 GMT 54.537231 24.452253 34,975 68 443 -64
2019-02-20 20:05:27 GMT 54.534485 24.440138 34,975 68 443 -64
2019-02-20 20:05:20 GMT 54.529587 24.418892 34,975 68 443 0
2019-02-20 20:05:16 GMT 54.525845 24.402550 34,975 68 444 -64
2019-02-20 20:05:10 GMT 54.521702 24.384487 34,975 68 443 0
2019-02-20 20:05:06 GMT 54.518303 24.369757 34,975 68 444 -128
2019-02-20 20:05:00 GMT 54.514252 24.352085 35,000 68 444 -128
2019-02-20 20:04:55 GMT 54.510223 24.334394 35,000 68 444 -64
2019-02-20 20:04:50 GMT 54.506516 24.318237 34,975 68 447 -64
2019-02-20 20:04:45 GMT 54.502716 24.301353 35,000 68 449 -64
2019-02-20 20:04:39 GMT 54.498276 24.281321 35,000 69 452 0
2019-02-20 20:04:35 GMT 54.494934 24.265471 35,000 70 454 -64
2019-02-20 20:04:30 GMT 54.491489 24.248823 35,000 71 456 0
2019-02-20 20:04:24 GMT 54.488186 24.232012 35,000 71 456 0
2019-02-20 20:04:19 GMT 54.484818 24.214029 34,975 72 458 0
2019-02-20 20:04:13 GMT 54.481480 24.195641 35,000 73 459 0
2019-02-20 20:04:09 GMT 54.477848 24.174749 35,000 74 460 -64
2019-02-20 20:04:04 GMT 54.475571 24.161036 35,000 74 461 0
2019-02-20 20:04:00 GMT 54.473740 24.149403 35,000 75 462 0
2019-02-20 20:03:57 GMT 54.472122 24.138794 35,000 75 462 0
2019-02-20 20:03:53 GMT 54.469849 24.123472 35,000 75 462 0
2019-02-20 20:03:47 GMT 54.466862 24.103254 35,000 75 462 0
2019-02-20 20:03:43 GMT 54.464397 24.086609 35,000 75 461 0
2019-02-20 20:03:37 GMT 54.461414 24.066467 35,000 75 460 -64
2019-02-20 20:03:32 GMT 54.458950 24.049822 35,000 75 460 0
2019-02-20 20:03:28 GMT 54.456345 24.032188 35,000 75 459 -64
2019-02-20 20:03:22 GMT 54.453461 24.012800 35,000 75 459 -64
2019-02-20 20:03:17 GMT 54.450943 23.995888 35,000 75 458 -64
2019-02-20 20:03:12 GMT 54.448242 23.977995 35,000 75 458 0
2019-02-20 20:03:07 GMT 54.445541 23.959766 35,000 75 457 0
2019-02-20 20:03:02 GMT 54.442516 23.939793 34,975 75 456 0
2019-02-20 20:02:56 GMT 54.439861 23.921898 34,975 75 456 0
2019-02-20 20:02:51 GMT 54.437210 23.904392 34,975 75 456 -64
2019-02-20 20:02:46 GMT 54.434601 23.886942 34,975 75 455 0
2019-02-20 20:02:43 GMT 54.433067 23.876787 34,975 75 455 0
2019-02-20 20:02:40 GMT 54.431763 23.868132 34,975 75 455 0
2019-02-20 20:02:35 GMT 54.429062 23.850321 34,975 75 455 -64
2019-02-20 20:02:31 GMT 54.426361 23.832172 35,000 75 454 -64
2019-02-20 20:02:25 GMT 54.423569 23.813675 35,000 75 454 0
2019-02-20 20:02:20 GMT 54.420914 23.795982 35,000 75 454 -64
2019-02-20 20:02:15 GMT 54.418350 23.778938 35,000 75 454 -64
2019-02-20 20:02:12 GMT 54.416775 23.768505 35,000 75 454 0
2019-02-20 20:02:08 GMT 54.414772 23.755272 35,000 75 454 0
2019-02-20 20:02:04 GMT 54.412395 23.739624 35,000 75 454 0
2019-02-20 20:02:00 GMT 54.410114 23.724228 34,975 75 455 0
2019-02-20 20:01:55 GMT 54.407787 23.708912 35,000 75 455 0
2019-02-20 20:01:52 GMT 54.406017 23.697094 35,000 75 455 0
2019-02-20 20:01:49 GMT 54.404575 23.687689 35,000 75 455 0
2019-02-20 20:01:42 GMT 54.400360 23.659704 34,975 75 455 0
2019-02-20 20:01:38 GMT 54.399124 23.651707 34,975 75 455 0
2019-02-20 20:01:34 GMT 54.396851 23.636669 34,975 75 455 -64
2019-02-20 20:01:31 GMT 54.395035 23.624849 35,000 75 455 -64
2019-02-20 20:01:28 GMT 54.393776 23.616444 35,000 75 455 -64
2019-02-20 20:01:25 GMT 54.392239 23.606373 35,000 75 456 0
2019-02-20 20:01:21 GMT 54.389725 23.589893 35,000 75 456 0
2019-02-20 20:01:17 GMT 54.388004 23.578741 35,000 75 456 0
2019-02-20 20:01:14 GMT 54.382557 23.542786 35,000 75 456 0
2019-02-20 20:01:07 GMT 54.382557 23.542786 35,000 75 456 -64
2019-02-20 20:01:02 GMT 54.379532 23.523310 35,000 75 456 0
2019-02-20 20:00:57 GMT 54.377110 23.507248 35,000 75 456 -64
2019-02-20 20:00:53 GMT 54.374969 23.493263 35,000 75 456 -64
2019-02-20 20:00:47 GMT 54.371712 23.471956 35,000 75 456 -64
2019-02-20 20:00:41 GMT 54.368637 23.452095 35,000 75 456 -64
2019-02-20 20:00:35 GMT 54.365566 23.431925 35,000 75 456 -64
2019-02-20 20:00:30 GMT 54.362686 23.413481 35,000 75 456 0
2019-02-20 20:00:25 GMT 54.360306 23.397799 35,000 75 456 0
2019-02-20 20:00:20 GMT 54.357239 23.377937 34,975 75 456 0
2019-02-20 20:00:15 GMT 54.354721 23.361538 34,975 75 456 0
2019-02-20 20:00:12 GMT 54.352718 23.348694 34,975 75 456 0
2019-02-20 20:00:08 GMT 54.350739 23.335770 34,975 75 455 0
2019-02-20 20:00:05 GMT 54.349091 23.325026 34,975 75 455 -64
2019-02-20 20:00:00 GMT 54.345886 23.304506 34,975 75 455 -64
2019-02-20 19:59:54 GMT 54.343597 23.289562 34,975 75 455 -64
2019-02-20 19:59:51 GMT 54.341637 23.277033 34,975 75 455 -64
2019-02-20 19:59:48 GMT 54.340439 23.269043 34,975 75 455 -64
2019-02-20 19:59:44 GMT 54.338058 23.253775 34,975 75 455 0
2019-02-20 19:59:41 GMT 54.336143 23.241243 34,975 75 455 0
2019-02-20 19:59:34 GMT 54.332474 23.217667 34,975 75 455 0
2019-02-20 19:59:30 GMT 54.330605 23.205456 34,975 75 455 -64
2019-02-20 19:59:26 GMT 54.328045 23.189142 34,975 75 456 -64
2019-02-20 19:59:23 GMT 54.326752 23.180748 34,975 75 456 -64
2019-02-20 19:59:20 GMT 54.324787 23.167919 34,975 75 456 -64
2019-02-20 19:59:16 GMT 54.323090 23.157080 34,975 75 456 -64
2019-02-20 19:59:13 GMT 54.319481 23.134129 35,000 74 455 -64
2019-02-20 19:59:10 GMT 54.319481 23.134129 35,000 74 455 -64
2019-02-20 19:59:06 GMT 54.317616 23.122393 35,000 74 455 -64
2019-02-20 19:59:03 GMT 54.315628 23.109821 35,000 74 456 -64
2019-02-20 19:58:59 GMT 54.313801 23.098339 35,000 74 457 0
2019-02-20 19:58:55 GMT 54.311520 23.084106 34,975 74 457 0
2019-02-20 19:58:52 GMT 54.309704 23.072954 34,975 74 458 0
2019-02-20 19:58:49 GMT 54.308025 23.062550 34,975 74 458 0
2019-02-20 19:58:46 GMT 54.306107 23.050610 34,975 74 459 0
2019-02-20 19:58:42 GMT 54.303978 23.037331 34,975 74 459 0
2019-02-20 19:58:39 GMT 54.302116 23.025846 34,975 74 459 0
2019-02-20 19:58:36 GMT 54.300247 23.014338 34,975 74 459 -64
2019-02-20 19:58:32 GMT 54.298298 23.002459 35,000 74 459 0
2019-02-20 19:58:29 GMT 54.296356 22.990587 35,000 74 459 0
2019-02-20 19:58:24 GMT 54.293968 22.975908 35,000 74 459 -64
2019-02-20 19:58:21 GMT 54.292236 22.965466 35,000 74 459 0
2019-02-20 19:58:18 GMT 54.289406 22.948442 35,000 74 459 0
2019-02-20 19:58:14 GMT 54.287567 22.937271 34,975 74 459 -64
2019-02-20 19:58:11 GMT 54.286285 22.929216 34,975 74 459 0
2019-02-20 19:58:08 GMT 54.284332 22.917315 34,975 74 459 0
2019-02-20 19:58:01 GMT 54.280422 22.893261 34,975 74 460 0
2019-02-20 19:57:58 GMT 54.278744 22.883106 35,000 74 459 0
2019-02-20 19:57:52 GMT 54.275162 22.861135 35,000 74 460 0
2019-02-20 19:57:48 GMT 54.272415 22.844343 35,000 74 459 -64
2019-02-20 19:57:43 GMT 54.270081 22.830454 35,000 74 459 -64
2019-02-20 19:57:39 GMT 54.263397 22.789568 35,000 74 460 0
2019-02-20 19:57:32 GMT 54.263397 22.789568 35,000 74 460 0
2019-02-20 19:57:28 GMT 54.258774 22.761633 35,000 74 460 0
2019-02-20 19:57:19 GMT 54.255936 22.744524 35,000 74 460 0
2019-02-20 19:57:11 GMT 54.251587 22.718393 35,000 74 460 0
2019-02-20 19:57:08 GMT 54.249836 22.707932 35,000 74 460 -64
2019-02-20 19:57:04 GMT 54.247974 22.696705 35,000 74 460 0
2019-02-20 19:56:58 GMT 54.244537 22.675781 35,000 74 460 0
2019-02-20 19:56:55 GMT 54.242340 22.662519 35,000 74 460 0
2019-02-20 19:56:49 GMT 54.238617 22.640238 34,975 74 460 -64
2019-02-20 19:56:45 GMT 54.236618 22.627991 35,000 74 460 -64
2019-02-20 19:56:37 GMT 54.232269 22.601858 35,000 74 459 0
2019-02-20 19:56:33 GMT 54.229568 22.585850 35,000 74 459 0
2019-02-20 19:56:27 GMT 54.226189 22.565676 34,975 74 459 0
2019-02-20 19:56:24 GMT 54.224579 22.555952 35,000 74 459 0
2019-02-20 19:56:17 GMT 54.219624 22.526335 35,000 74 459 0
2019-02-20 19:56:14 GMT 54.218739 22.521166 35,000 74 459 0
2019-02-20 19:56:06 GMT 54.214226 22.494022 35,000 74 459 0
2019-02-20 19:56:03 GMT 54.212547 22.483925 34,975 74 458 0
2019-02-20 19:55:56 GMT 54.207939 22.456135 34,975 74 458 -64
2019-02-20 19:55:50 GMT 54.205101 22.439493 34,975 74 458 -64
2019-02-20 19:55:46 GMT 54.202026 22.421076 35,000 74 458 -64
2019-02-20 19:55:43 GMT 54.200775 22.413757 35,000 74 458 0
2019-02-20 19:55:36 GMT 54.195969 22.385036 34,975 74 458 0
2019-02-20 19:55:33 GMT 54.194717 22.377695 34,975 73 458 0
2019-02-20 19:55:25 GMT 54.190201 22.350664 34,975 73 457 0
2019-02-20 19:55:22 GMT 54.188576 22.341345 34,975 73 457 0
2019-02-20 19:55:15 GMT 54.182522 22.305639 34,975 73 457 -64
2019-02-20 19:55:07 GMT 54.179672 22.288670 34,975 73 458 -64
2019-02-20 19:55:02 GMT 54.176144 22.267914 35,000 73 458 0
2019-02-20 19:54:56 GMT 54.173073 22.249899 34,975 73 457 -64
2019-02-20 19:54:51 GMT 54.170418 22.234388 34,975 73 457 -64
2019-02-20 19:54:46 GMT 54.164703 22.200857 35,000 73 457 -64
2019-02-20 19:54:42 GMT 54.164703 22.200857 35,000 73 457 0
2019-02-20 19:54:36 GMT 54.161060 22.179459 35,000 73 458 0
2019-02-20 19:54:32 GMT 54.158733 22.165644 35,000 73 458 0
2019-02-20 19:54:24 GMT 54.154591 22.141409 35,000 73 458 0
2019-02-20 19:54:21 GMT 54.152683 22.130423 35,000 73 458 0
2019-02-20 19:54:16 GMT 54.148819 22.107885 35,000 73 458 0
2019-02-20 19:54:11 GMT 54.146442 22.094070 35,000 73 458 0
2019-02-20 19:54:03 GMT 54.141510 22.065475 34,975 73 458 0
2019-02-20 19:54:00 GMT 54.139973 22.056427 35,000 73 458 0
2019-02-20 19:53:55 GMT 54.136948 22.038816 35,000 73 458 0
2019-02-20 19:53:51 GMT 54.133850 22.020840 35,000 73 458 0
2019-02-20 19:53:45 GMT 54.130989 22.004322 35,000 73 458 0
2019-02-20 19:53:40 GMT 54.127991 21.987017 35,000 73 458 0
2019-02-20 19:53:34 GMT 54.124332 21.965628 35,000 73 458 0
2019-02-20 19:53:30 GMT 54.122040 21.952488 35,000 73 458 -64
2019-02-20 19:53:24 GMT 54.118698 21.933073 34,975 73 458 -64
2019-02-20 19:53:20 GMT 54.115997 21.917562 35,000 73 458 0
2019-02-20 19:53:14 GMT 54.112289 21.896145 35,000 73 458 0
2019-02-20 19:53:09 GMT 54.109806 21.881615 35,000 73 458 64
2019-02-20 19:53:02 GMT 54.105106 21.854715 34,975 73 458 0
2019-02-20 19:52:58 GMT 54.103058 21.843000 34,975 73 458 0
2019-02-20 19:52:54 GMT 54.099937 21.824987 34,975 73 458 0
2019-02-20 19:52:49 GMT 54.097286 21.809799 34,975 73 459 0
2019-02-20 19:52:42 GMT 54.093430 21.787771 34,975 73 459 -64
2019-02-20 19:52:38 GMT 54.091141 21.774668 34,975 73 459 -64
2019-02-20 19:52:33 GMT 54.087601 21.754303 35,000 73 459 -64
2019-02-20 19:52:28 GMT 54.084808 21.738388 35,000 73 459 -64
2019-02-20 19:52:23 GMT 54.081207 21.717695 35,000 73 458 -64
2019-02-20 19:52:20 GMT 54.079643 21.708742 35,000 73 458 -64
2019-02-20 19:52:12 GMT 54.075359 21.684265 35,000 73 458 0
2019-02-20 19:52:08 GMT 54.071217 21.660919 35,000 73 458 0
2019-02-20 19:52:02 GMT 54.068840 21.647429 35,000 73 458 0
2019-02-20 19:51:57 GMT 54.066055 21.631609 35,000 73 458 -64
2019-02-20 19:51:52 GMT 54.062851 21.613403 35,000 73 458 0
2019-02-20 19:51:47 GMT 54.060135 21.597910 35,000 73 458 0
2019-02-20 19:51:41 GMT 54.056625 21.577932 35,000 73 458 0
2019-02-20 19:51:37 GMT 54.053833 21.562160 35,000 73 458 0
2019-02-20 19:51:34 GMT 54.051910 21.551489 35,000 73 458 0
2019-02-20 19:51:29 GMT 54.049210 21.535950 35,000 73 458 0
2019-02-20 19:51:26 GMT 54.047379 21.525669 35,000 73 458 0
2019-02-20 19:51:20 GMT 54.043900 21.506050 35,000 73 458 -64
2019-02-20 19:51:15 GMT 54.036987 21.467207 35,000 73 458 0
2019-02-20 19:51:09 GMT 54.036987 21.467207 35,000 73 458 0
2019-02-20 19:51:06 GMT 54.035522 21.458967 35,000 73 457 0
2019-02-20 19:51:03 GMT 54.033005 21.444841 35,000 73 457 0
2019-02-20 19:51:00 GMT 54.031040 21.433517 35,000 73 457 0
2019-02-20 19:50:56 GMT 54.028713 21.420835 35,000 73 457 -64
2019-02-20 19:50:53 GMT 54.027054 21.411570 35,000 73 457 -64
2019-02-20 19:50:49 GMT 54.024712 21.398136 35,000 73 457 0
2019-02-20 19:50:45 GMT 54.018539 21.363857 35,000 73 457 0
2019-02-20 19:50:40 GMT 54.018539 21.363857 35,000 73 457 -64
2019-02-20 19:50:34 GMT 54.015491 21.346678 35,000 73 457 0
2019-02-20 19:50:28 GMT 54.011810 21.326111 35,000 73 457 0
2019-02-20 19:50:24 GMT 54.009674 21.314123 35,000 73 457 0
2019-02-20 19:50:21 GMT 54.007767 21.303459 35,000 73 457 0
2019-02-20 19:50:18 GMT 54.005901 21.293119 35,000 73 457 0
2019-02-20 19:50:14 GMT 54.003250 21.278399 35,000 73 457 0
2019-02-20 19:50:11 GMT 54.001667 21.269449 35,000 72 458 0
2019-02-20 19:50:08 GMT 53.999199 21.255718 35,000 72 458 0
2019-02-20 19:50:04 GMT 53.996826 21.242712 34,975 73 458 0
2019-02-20 19:50:01 GMT 53.995476 21.235119 34,975 73 458 0
2019-02-20 19:49:57 GMT 53.993008 21.221384 35,000 72 458 0
2019-02-20 19:49:54 GMT 53.990074 21.205229 34,975 72 458 -64
2019-02-20 19:49:51 GMT 53.988911 21.198767 35,000 72 458 -64
2019-02-20 19:49:48 GMT 53.987003 21.188103 35,000 72 458 -64
2019-02-20 19:49:43 GMT 53.984070 21.171947 35,000 72 458 0
2019-02-20 19:49:40 GMT 53.982056 21.160610 35,000 72 458 0
2019-02-20 19:49:36 GMT 53.980042 21.149624 35,000 73 458 0
2019-02-20 19:49:33 GMT 53.977692 21.136644 35,000 72 458 0
2019-02-20 19:49:27 GMT 53.973923 21.115643 35,000 72 458 0
2019-02-20 19:49:23 GMT 53.971035 21.099890 35,000 72 458 0
2019-02-20 19:49:16 GMT 53.967125 21.078239 34,975 72 458 0
2019-02-20 19:49:12 GMT 53.964661 21.064243 34,975 72 458 0
2019-02-20 19:49:06 GMT 53.960907 21.043999 35,000 72 458 0
2019-02-20 19:49:02 GMT 53.958023 21.028225 35,000 72 458 -64
2019-02-20 19:48:51 GMT 53.951569 20.992519 35,000 72 458 0
2019-02-20 19:48:44 GMT 53.947495 20.970232 35,000 72 458 0
2019-02-20 19:48:41 GMT 53.944748 20.955166 34,975 72 458 0
2019-02-20 19:48:34 GMT 53.941242 20.935984 35,000 72 458 0
2019-02-20 19:48:29 GMT 53.937881 20.917498 35,000 72 458 0
2019-02-20 19:48:24 GMT 53.935043 20.902117 35,000 72 458 0
2019-02-20 19:48:21 GMT 53.931328 20.881941 35,000 72 458 0
2019-02-20 19:48:15 GMT 53.928532 20.866510 34,975 72 458 0
2019-02-20 19:48:11 GMT 53.923923 20.841549 34,975 72 458 -64
2019-02-20 19:48:03 GMT 53.921814 20.830235 34,975 72 458 0
2019-02-20 19:47:58 GMT 53.918941 20.814487 34,975 72 458 -64
2019-02-20 19:47:54 GMT 53.915684 20.797037 35,000 72 458 -64
2019-02-20 19:47:48 GMT 53.912426 20.779266 35,000 72 458 -64
2019-02-20 19:47:41 GMT 53.907257 20.751211 35,000 72 458 0
2019-02-20 19:47:36 GMT 53.904839 20.738230 35,000 72 458 0
2019-02-20 19:47:31 GMT 53.901394 20.719406 34,975 72 458 0
2019-02-20 19:47:28 GMT 53.899429 20.708836 34,975 72 459 0
2019-02-20 19:47:21 GMT 53.895061 20.685236 34,975 72 458 0
2019-02-20 19:47:18 GMT 53.892563 20.671875 34,975 72 459 0
2019-02-20 19:47:07 GMT 53.886017 20.636719 34,975 72 459 0
2019-02-20 19:46:59 GMT 53.881142 20.610352 34,975 72 459 0
2019-02-20 19:46:56 GMT 53.879608 20.602194 34,975 72 459 0
2019-02-20 19:46:49 GMT 53.874435 20.574490 35,000 72 459 -64
2019-02-20 19:46:46 GMT 53.872856 20.565922 35,000 72 459 -64
2019-02-20 19:46:36 GMT 53.865967 20.529003 35,000 72 459 -64
2019-02-20 19:46:28 GMT 53.861572 20.505432 35,000 72 459 -64
2019-02-20 19:46:25 GMT 53.859375 20.493818 35,000 72 459 0
2019-02-20 19:46:18 GMT 53.854935 20.470196 35,000 72 459 64
2019-02-20 19:46:14 GMT 53.852371 20.456543 34,975 72 459 0
2019-02-20 19:46:07 GMT 53.848091 20.433681 35,000 72 458 0
2019-02-20 19:46:03 GMT 53.845436 20.419706 35,000 72 458 0
2019-02-20 19:45:57 GMT 53.840881 20.395491 35,000 72 458 -64
2019-02-20 19:45:53 GMT 53.837196 20.376003 35,000 72 458 -64
2019-02-20 19:45:47 GMT 53.835102 20.364775 34,975 72 458 0
2019-02-20 19:45:43 GMT 53.829983 20.337873 35,000 72 458 0
2019-02-20 19:45:35 GMT 53.827374 20.323818 35,000 72 458 0
2019-02-20 19:45:31 GMT 53.825047 20.311621 35,000 72 458 0
2019-02-20 19:45:24 GMT 53.819275 20.281233 35,000 72 458 0
2019-02-20 19:45:21 GMT 53.818298 20.276157 35,000 72 458 0
2019-02-20 19:45:18 GMT 53.815552 20.261456 35,000 72 458 0
2019-02-20 19:45:14 GMT 53.810429 20.234554 35,000 72 458 -64
2019-02-20 19:45:09 GMT 53.810429 20.234554 35,000 72 458 -64
2019-02-20 19:45:02 GMT 53.805771 20.209978 35,000 72 458 0
2019-02-20 19:44:59 GMT 53.803986 20.200483 35,000 72 459 -64
2019-02-20 19:44:54 GMT 53.800980 20.184793 35,000 72 459 0
2019-02-20 19:44:49 GMT 53.797623 20.167131 35,000 72 459 0
2019-02-20 19:44:42 GMT 53.793064 20.143270 35,000 72 458 0
2019-02-20 19:44:39 GMT 53.791065 20.132769 35,000 72 458 0
2019-02-20 19:44:34 GMT 53.787201 20.112656 35,000 72 458 -64
2019-02-20 19:44:28 GMT 53.784210 20.097055 35,000 72 458 -64
2019-02-20 19:44:22 GMT 53.780319 20.076651 35,000 72 458 0
2019-02-20 19:44:16 GMT 53.776016 20.054209 35,000 72 458 0
2019-02-20 19:44:12 GMT 53.773701 20.041971 35,000 72 458 0
2019-02-20 19:44:08 GMT 53.770752 20.026743 34,975 71 458 0
2019-02-20 19:44:03 GMT 53.764950 19.996490 34,975 72 458 0
2019-02-20 19:43:55 GMT 53.762341 19.982920 34,975 72 458 0
2019-02-20 19:43:48 GMT 53.756241 19.951328 35,000 71 458 0
2019-02-20 19:43:45 GMT 53.756241 19.951328 35,000 71 457 0
2019-02-20 19:43:41 GMT 53.753448 19.936733 35,000 71 458 -64
2019-02-20 19:43:38 GMT 53.750610 19.922171 35,000 71 458 0
2019-02-20 19:43:34 GMT 53.748886 19.913042 35,000 71 457 0
2019-02-20 19:43:31 GMT 53.746628 19.901499 35,000 71 457 0
2019-02-20 19:43:26 GMT 53.743240 19.883921 35,000 71 457 0
2019-02-20 19:43:22 GMT 53.740677 19.870659 34,975 71 457 0
2019-02-20 19:43:19 GMT 53.739113 19.862555 34,975 71 457 0
2019-02-20 19:43:16 GMT 53.736282 19.847979 35,000 71 457 0
2019-02-20 19:43:10 GMT 53.733109 19.831776 35,000 71 457 -64
2019-02-20 19:43:04 GMT 53.728271 19.806702 35,000 71 457 -64
2019-02-20 19:43:00 GMT 53.726311 19.796555 35,000 71 457 0
2019-02-20 19:42:56 GMT 53.723656 19.782984 35,000 71 457 -64
2019-02-20 19:42:53 GMT 53.721817 19.773506 35,000 71 457 -64
2019-02-20 19:42:49 GMT 53.719345 19.760715 35,000 71 457 0
2019-02-20 19:42:43 GMT 53.714676 19.736626 35,000 71 457 0
2019-02-20 19:42:40 GMT 53.712811 19.727163 35,000 71 457 0
2019-02-20 19:42:32 GMT 53.707687 19.700829 35,000 71 457 0
2019-02-20 19:42:29 GMT 53.705967 19.692024 35,000 71 456 0
2019-02-20 19:42:23 GMT 53.702244 19.673120 35,000 71 456 0
2019-02-20 19:42:19 GMT 53.699169 19.657288 35,000 71 456 0
2019-02-20 19:42:13 GMT 53.695587 19.639004 34,975 71 457 0
2019-02-20 19:42:09 GMT 53.691879 19.620171 34,975 71 457 0
2019-02-20 19:42:02 GMT 53.688416 19.602598 34,975 71 457 0
2019-02-20 19:41:57 GMT 53.685158 19.586119 34,975 71 456 0
2019-02-20 19:41:52 GMT 53.681526 19.567619 34,975 71 456 0
2019-02-20 19:41:47 GMT 53.678410 19.551786 34,975 71 456 0
2019-02-20 19:41:41 GMT 53.674530 19.531887 35,000 71 456 -64
2019-02-20 19:41:37 GMT 53.671516 19.516727 35,000 71 456 -64
2019-02-20 19:41:31 GMT 53.667561 19.496532 35,000 71 456 -64
2019-02-20 19:41:27 GMT 53.664825 19.482761 35,000 71 456 -64
2019-02-20 19:41:21 GMT 53.660904 19.462927 35,000 71 456 0
2019-02-20 19:41:16 GMT 53.656998 19.443132 35,000 71 455 0
2019-02-20 19:41:12 GMT 53.655132 19.433683 35,000 71 455 0
2019-02-20 19:41:08 GMT 53.651688 19.416216 35,000 71 455 0
2019-02-20 19:41:05 GMT 53.650524 19.410500 35,000 71 455 0
2019-02-20 19:40:59 GMT 53.646606 19.390713 35,000 71 455 0
2019-02-20 19:40:54 GMT 53.643261 19.373985 35,000 71 455 0
2019-02-20 19:40:47 GMT 53.638458 19.349827 35,000 71 455 0
2019-02-20 19:40:44 GMT 53.636139 19.338120 35,000 71 455 0
2019-02-20 19:40:38 GMT 53.632507 19.320007 35,000 71 455 0
2019-02-20 19:40:34 GMT 53.629715 19.305882 35,000 71 455 0
2019-02-20 19:40:28 GMT 53.625896 19.286821 35,000 71 455 0
2019-02-20 19:40:24 GMT 53.622757 19.271040 35,000 71 455 0
2019-02-20 19:40:18 GMT 53.619003 19.252283 35,000 71 455 0
2019-02-20 19:40:14 GMT 53.616074 19.237532 35,000 71 456 0
2019-02-20 19:40:08 GMT 53.612045 19.217442 34,975 71 456 0
2019-02-20 19:40:03 GMT 53.604900 19.181967 34,975 71 456 0
2019-02-20 19:39:58 GMT 53.604900 19.181967 34,975 71 456 0
2019-02-20 19:39:53 GMT 53.602020 19.167534 35,000 71 456 0
2019-02-20 19:39:46 GMT 53.597546 19.145454 34,975 71 456 0
2019-02-20 19:39:43 GMT 53.595291 19.134104 35,000 71 456 0
2019-02-20 19:39:36 GMT 53.590485 19.110325 35,000 71 456 -64
2019-02-20 19:39:30 GMT 53.586189 19.088907 35,000 71 456 0
2019-02-20 19:39:23 GMT 53.581394 19.065077 35,000 71 456 0
2019-02-20 19:39:17 GMT 53.577808 19.047384 35,000 71 456 0
2019-02-20 19:39:13 GMT 53.574554 19.031301 35,000 71 456 0
2019-02-20 19:39:10 GMT 53.572178 19.019596 35,000 71 456 0
2019-02-20 19:39:02 GMT 53.567242 18.995119 34,975 71 456 0
2019-02-20 19:38:59 GMT 53.565426 18.986071 34,975 71 456 0
2019-02-20 19:38:52 GMT 53.560165 18.960220 35,000 71 457 -64
2019-02-20 19:38:48 GMT 53.558491 18.951900 35,000 71 457 0
2019-02-20 19:38:41 GMT 53.553230 18.926050 35,000 71 457 -64
2019-02-20 19:38:33 GMT 53.547920 18.899878 35,000 71 457 0
2019-02-20 19:38:29 GMT 53.541183 18.866665 35,000 71 457 -64
2019-02-20 19:38:23 GMT 53.541183 18.866665 35,000 71 457 -64
2019-02-20 19:38:20 GMT 53.538982 18.855932 35,000 71 457 0
2019-02-20 19:38:12 GMT 53.533489 18.829111 35,000 71 457 0
2019-02-20 19:38:08 GMT 53.530197 18.813066 35,000 71 457 0
2019-02-20 19:38:02 GMT 53.526787 18.796314 35,000 71 457 -64
2019-02-20 19:37:59 GMT 53.524647 18.785894 35,000 71 457 -64
2019-02-20 19:37:55 GMT 53.521294 18.769495 35,000 70 456 0
2019-02-20 19:37:51 GMT 53.518967 18.758104 35,000 70 456 0
2019-02-20 19:37:48 GMT 53.517059 18.748734 35,000 70 456 0
2019-02-20 19:37:40 GMT 53.511292 18.720625 34,975 70 456 0
2019-02-20 19:37:37 GMT 53.509598 18.712620 34,975 71 457 0
2019-02-20 19:37:31 GMT 53.505478 18.692532 34,975 71 457 0
2019-02-20 19:37:28 GMT 53.503418 18.682493 34,975 71 457 0
2019-02-20 19:37:25 GMT 53.501221 18.671736 34,975 71 457 -64
2019-02-20 19:37:19 GMT 53.496670 18.649614 35,000 70 458 0
2019-02-20 19:37:16 GMT 53.490326 18.618843 35,000 70 458 0
2019-02-20 19:37:09 GMT 53.490326 18.618843 34,975 70 458 0
2019-02-20 19:37:06 GMT 53.487728 18.606478 35,000 70 458 0
2019-02-20 19:37:03 GMT 53.486023 18.598049 35,000 70 459 -64
2019-02-20 19:36:59 GMT 53.483585 18.586363 35,000 70 458 0
2019-02-20 19:36:55 GMT 53.480484 18.571289 35,000 70 458 0
2019-02-20 19:36:52 GMT 53.478745 18.562893 35,000 70 458 0
2019-02-20 19:36:48 GMT 53.475357 18.546492 35,000 70 459 -64
2019-02-20 19:36:45 GMT 53.472885 18.534719 35,000 70 459 -64
2019-02-20 19:36:41 GMT 53.470459 18.522949 35,000 70 459 -64
2019-02-20 19:36:37 GMT 53.468262 18.512278 35,000 70 459 0
2019-02-20 19:36:34 GMT 53.465973 18.501135 35,000 70 459 0
2019-02-20 19:36:31 GMT 53.464096 18.492109 35,000 70 459 0
2019-02-20 19:36:26 GMT 53.460590 18.475288 35,000 70 459 -64
2019-02-20 19:36:22 GMT 53.457458 18.460171 35,000 70 459 -64
2019-02-20 19:36:16 GMT 53.453327 18.440390 35,000 70 459 0
2019-02-20 19:36:12 GMT 53.450024 18.424639 35,000 70 459 0
2019-02-20 19:36:05 GMT 53.445786 18.404140 35,000 70 459 0
2019-02-20 19:36:02 GMT 53.443588 18.393782 35,000 70 459 0
2019-02-20 19:35:58 GMT 53.441132 18.382067 35,000 70 459 0
2019-02-20 19:35:55 GMT 53.438599 18.369925 35,000 70 459 0
2019-02-20 19:35:52 GMT 53.436859 18.361528 35,000 70 459 -64
2019-02-20 19:35:49 GMT 53.430450 18.331001 35,000 70 460 0
2019-02-20 19:35:44 GMT 53.428299 18.320644 35,000 70 460 0
2019-02-20 19:35:40 GMT 53.428299 18.320644 35,000 70 460 0
2019-02-20 19:35:30 GMT 53.420975 18.285723 35,000 70 460 0
2019-02-20 19:35:23 GMT 53.415386 18.259197 35,000 70 461 0
2019-02-20 19:35:20 GMT 53.413620 18.250875 35,000 70 461 0
2019-02-20 19:35:15 GMT 53.410686 18.236738 35,000 70 462 0
2019-02-20 19:35:12 GMT 53.407845 18.223330 34,975 70 461 0
2019-02-20 19:35:09 GMT 53.406372 18.216274 35,000 70 461 0
2019-02-20 19:35:01 GMT 53.400631 18.189077 35,000 70 461 -64
2019-02-20 19:34:58 GMT 53.398773 18.180332 35,000 70 461 -64
2019-02-20 19:34:53 GMT 53.395092 18.162825 35,000 70 462 0
2019-02-20 19:34:49 GMT 53.391880 18.147718 35,000 70 461 -64
2019-02-20 19:34:40 GMT 53.386059 18.120171 35,000 70 462 0
2019-02-20 19:34:37 GMT 53.383873 18.109751 35,000 70 462 0
2019-02-20 19:34:28 GMT 53.376938 18.077141 34,975 70 462 0
2019-02-20 19:34:22 GMT 53.373074 18.059019 34,975 70 462 0
2019-02-20 19:34:18 GMT 53.369522 18.042219 34,975 70 462 0
2019-02-20 19:34:09 GMT 53.363663 18.014597 34,975 70 462 0
2019-02-20 19:34:06 GMT 53.361668 18.005219 34,975 70 462 0
2019-02-20 19:34:01 GMT 53.357990 17.988012 34,975 70 462 0
2019-02-20 19:33:57 GMT 53.354496 17.971533 34,975 70 462 0
2019-02-20 19:33:49 GMT 53.349052 17.946005 34,975 70 462 -64
2019-02-20 19:33:45 GMT 53.346725 17.935259 35,000 70 463 -64
2019-02-20 19:33:38 GMT 53.338997 17.898911 35,000 70 463 -64
2019-02-20 19:33:29 GMT 53.334595 17.878366 35,000 70 463 -64
2019-02-20 19:33:25 GMT 53.331223 17.862638 35,000 70 463 0
2019-02-20 19:33:20 GMT 53.327728 17.846504 35,000 70 463 0
2019-02-20 19:33:17 GMT 53.326172 17.839050 35,000 70 463 0
2019-02-20 19:33:13 GMT 53.323563 17.826965 35,000 70 463 0
2019-02-20 19:33:08 GMT 53.320175 17.811192 35,000 70 463 0
2019-02-20 19:33:04 GMT 53.316193 17.792751 34,975 70 463 0
2019-02-20 19:32:56 GMT 53.311066 17.768816 35,000 70 463 0
2019-02-20 19:32:53 GMT 53.302311 17.728136 34,975 70 463 0
2019-02-20 19:32:45 GMT 53.302311 17.728136 34,975 70 464 0
2019-02-20 19:32:42 GMT 53.300903 17.721809 34,975 70 463 0
2019-02-20 19:32:38 GMT 53.295330 17.695906 34,975 70 463 0
2019-02-20 19:32:31 GMT 53.292984 17.685163 35,000 70 463 0
2019-02-20 19:32:24 GMT 53.287445 17.659580 35,000 70 464 0
2019-02-20 19:32:21 GMT 53.285568 17.650869 35,000 70 463 -64
2019-02-20 19:32:18 GMT 53.282902 17.638388 35,000 70 463 0
2019-02-20 19:32:14 GMT 53.280853 17.628977 35,000 70 463 0
2019-02-20 19:32:10 GMT 53.277924 17.615557 35,000 70 463 0
2019-02-20 19:32:06 GMT 53.271835 17.587385 35,000 70 463 0
2019-02-20 19:32:03 GMT 53.271835 17.587385 35,000 70 463 0
2019-02-20 19:31:58 GMT 53.268677 17.572947 35,000 70 463 0
2019-02-20 19:31:54 GMT 53.265976 17.560469 34,975 69 464 0
2019-02-20 19:31:50 GMT 53.262817 17.546028 34,975 70 463 -64
2019-02-20 19:31:45 GMT 53.259392 17.530302 35,000 69 464 -64
2019-02-20 19:31:41 GMT 53.255806 17.513823 34,975 69 464 0
2019-02-20 19:31:37 GMT 53.253387 17.502790 35,000 69 464 -64
2019-02-20 19:31:33 GMT 53.250591 17.489992 35,000 69 464 0
2019-02-20 19:31:29 GMT 53.247620 17.476267 35,000 69 464 0
2019-02-20 19:31:26 GMT 53.245705 17.467535 35,000 69 464 0
2019-02-20 19:31:22 GMT 53.242771 17.454124 35,000 69 464 -64
2019-02-20 19:31:16 GMT 53.238281 17.433655 35,000 69 464 0
2019-02-20 19:31:12 GMT 53.229038 17.391357 35,000 69 463 0
2019-02-20 19:31:04 GMT 53.227551 17.384653 35,000 69 464 0
2019-02-20 19:30:56 GMT 53.223038 17.364204 34,975 69 464 0
2019-02-20 19:30:51 GMT 53.219971 17.350080 34,975 69 464 0
2019-02-20 19:30:45 GMT 53.215305 17.328995 35,000 69 464 0
2019-02-20 19:30:41 GMT 53.212513 17.316231 35,000 69 464 0
2019-02-20 19:30:37 GMT 53.209351 17.301819 35,000 69 464 -64
2019-02-20 19:30:34 GMT 53.207577 17.293854 35,000 69 464 -64
2019-02-20 19:30:31 GMT 53.204544 17.280083 35,000 69 464 -64
2019-02-20 19:30:27 GMT 53.201569 17.266741 35,000 69 463 0
2019-02-20 19:30:20 GMT 53.196854 17.245317 35,000 69 463 0
2019-02-20 19:30:14 GMT 53.191910 17.222874 35,000 69 463 0
2019-02-20 19:30:09 GMT 53.189072 17.210161 35,000 69 463 0
2019-02-20 19:30:04 GMT 53.184998 17.191799 35,000 69 464 0
2019-02-20 19:30:01 GMT 53.182812 17.181728 35,000 69 463 0
2019-02-20 19:29:51 GMT 53.174992 17.146669 35,000 69 463 0
2019-02-20 19:29:41 GMT 53.168015 17.115208 35,000 69 464 0
2019-02-20 19:29:38 GMT 53.165863 17.105556 35,000 69 463 0
2019-02-20 19:29:33 GMT 53.159637 17.077461 35,000 69 463 0
2019-02-20 19:29:27 GMT 53.157944 17.069851 35,000 69 463 0
2019-02-20 19:29:20 GMT 53.152180 17.044077 35,000 69 463 0
2019-02-20 19:29:17 GMT 53.150345 17.035793 35,000 69 463 0
2019-02-20 19:29:10 GMT 53.144531 17.009739 35,000 69 464 0
2019-02-20 19:29:06 GMT 53.142380 17.000010 35,000 69 464 0
2019-02-20 19:29:00 GMT 53.137756 16.979370 34,975 69 464 0
2019-02-20 19:28:56 GMT 53.134537 16.964991 35,000 69 464 0
2019-02-20 19:28:51 GMT 53.130070 16.944958 35,000 69 464 0
2019-02-20 19:28:45 GMT 53.126175 16.927656 35,000 69 464 0
2019-02-20 19:28:38 GMT 53.118805 16.895012 34,975 69 464 0
2019-02-20 19:28:35 GMT 53.118805 16.895012 34,975 69 464 0
2019-02-20 19:28:30 GMT 53.114182 16.874294 35,000 69 463 0
2019-02-20 19:28:27 GMT 53.112305 16.865976 35,000 69 463 -64
2019-02-20 19:28:24 GMT 53.110703 16.859005 35,000 69 463 -64
2019-02-20 19:28:19 GMT 53.106583 16.840708 35,000 69 463 -64
2019-02-20 19:28:16 GMT 53.104557 16.831701 35,000 69 463 -64
2019-02-20 19:28:12 GMT 53.101856 16.819744 35,000 69 463 -64
2019-02-20 19:28:07 GMT 53.097576 16.800762 35,000 69 463 -64
2019-02-20 19:28:03 GMT 53.094681 16.787796 35,000 69 463 -64
2019-02-20 19:27:56 GMT 53.089233 16.763840 35,000 69 463 0
2019-02-20 19:27:53 GMT 53.086311 16.750854 35,000 69 463 0
2019-02-20 19:27:45 GMT 53.081131 16.727829 35,000 69 463 0
2019-02-20 19:27:42 GMT 53.079327 16.719856 35,000 69 463 0
2019-02-20 19:27:38 GMT 53.074997 16.700897 35,000 69 464 0
2019-02-20 19:27:34 GMT 53.072811 16.691214 35,000 69 464 -64
2019-02-20 19:27:31 GMT 53.071014 16.683273 35,000 69 464 0
2019-02-20 19:27:23 GMT 53.063461 16.649933 35,000 69 464 -64
2019-02-20 19:27:18 GMT 53.060474 16.636990 35,000 69 464 0
2019-02-20 19:27:15 GMT 53.058380 16.627651 35,000 69 464 0
2019-02-20 19:27:11 GMT 53.055634 16.615644 35,000 69 464 0
2019-02-20 19:27:06 GMT 53.051254 16.596340 35,000 69 465 0
2019-02-20 19:27:03 GMT 53.048370 16.583706 35,000 69 465 0
2019-02-20 19:26:55 GMT 53.042831 16.559378 35,000 69 465 0
2019-02-20 19:26:50 GMT 53.039478 16.544783 35,000 69 465 -64
2019-02-20 19:26:43 GMT 53.034546 16.523125 35,000 69 465 0
2019-02-20 19:26:40 GMT 53.032028 16.512136 35,000 69 465 0
2019-02-20 19:26:33 GMT 53.023636 16.475601 34,975 69 464 0
2019-02-20 19:26:30 GMT 53.023636 16.475601 34,975 69 464 0
2019-02-20 19:26:23 GMT 53.018856 16.454617 34,975 69 464 0
2019-02-20 19:26:20 GMT 53.016621 16.445042 34,975 69 464 0
2019-02-20 19:26:14 GMT 53.011127 16.421108 35,000 69 464 -64
2019-02-20 19:26:10 GMT 53.008476 16.409494 35,000 69 464 -64
2019-02-20 19:26:02 GMT 53.002716 16.384583 35,000 69 464 -64
2019-02-20 19:25:59 GMT 53.000469 16.374651 34,975 69 465 0
2019-02-20 19:25:54 GMT 52.996857 16.359024 35,000 69 464 0
2019-02-20 19:25:51 GMT 52.994614 16.349411 35,000 69 464 0
2019-02-20 19:25:48 GMT 52.992279 16.339111 34,975 69 464 0
2019-02-20 19:25:45 GMT 52.989948 16.329136 34,975 69 464 0
2019-02-20 19:25:40 GMT 52.985962 16.311798 34,975 69 465 0
2019-02-20 19:25:37 GMT 52.983990 16.303162 34,975 69 465 0
2019-02-20 19:25:33 GMT 52.981056 16.290527 35,000 69 465 0
2019-02-20 19:25:30 GMT 52.978775 16.280594 35,000 69 465 0
2019-02-20 19:25:27 GMT 52.976212 16.269608 35,000 69 465 -64
2019-02-20 19:25:24 GMT 52.973602 16.258316 35,000 68 465 0
2019-02-20 19:25:21 GMT 52.970901 16.246643 35,000 68 467 -64
2019-02-20 19:25:18 GMT 52.969391 16.240005 35,000 68 466 0
2019-02-20 19:25:15 GMT 52.967285 16.231079 35,000 68 465 -64
2019-02-20 19:25:12 GMT 52.965042 16.221390 35,000 68 465 -64
2019-02-20 19:25:08 GMT 52.961037 16.204128 35,000 68 465 -64
2019-02-20 19:25:04 GMT 52.958038 16.191177 35,000 68 465 0
2019-02-20 19:25:00 GMT 52.952145 16.165911 35,000 68 466 0
2019-02-20 19:24:57 GMT 52.952145 16.165911 35,000 68 466 0
2019-02-20 19:24:53 GMT 52.949913 16.156260 35,000 68 466 0
2019-02-20 19:24:49 GMT 52.946838 16.142918 35,000 68 466 0
2019-02-20 19:24:45 GMT 52.943253 16.127625 35,000 68 466 -64
2019-02-20 19:24:42 GMT 52.941067 16.118357 34,975 68 466 0
2019-02-20 19:24:39 GMT 52.938831 16.108704 34,975 68 469 0
2019-02-20 19:24:33 GMT 52.934784 16.091385 34,975 68 467 0
2019-02-20 19:24:29 GMT 52.930847 16.074448 34,975 68 467 0
2019-02-20 19:24:24 GMT 52.926544 16.056137 34,975 68 467 64
2019-02-20 19:24:20 GMT 52.924072 16.045456 34,975 68 467 0
2019-02-20 19:24:16 GMT 52.921097 16.032820 34,975 68 466 -64
2019-02-20 19:24:13 GMT 52.918671 16.022491 34,975 68 467 0
2019-02-20 19:24:09 GMT 52.916023 16.011238 34,975 68 467 0
2019-02-20 19:24:06 GMT 52.912445 15.995941 34,975 68 467 -64
2019-02-20 19:24:02 GMT 52.910110 15.985971 34,975 68 467 -64
2019-02-20 19:23:58 GMT 52.906769 15.971603 35,000 68 467 0
2019-02-20 19:23:53 GMT 52.900497 15.945053 34,975 68 466 -64
2019-02-20 19:23:50 GMT 52.900497 15.945053 35,000 68 466 -64
2019-02-20 19:23:46 GMT 52.898148 15.935041 35,000 68 466 -64
2019-02-20 19:23:42 GMT 52.894886 15.921151 35,000 68 467 0
2019-02-20 19:23:39 GMT 52.891983 15.908813 35,000 68 467 -64
2019-02-20 19:23:36 GMT 52.890186 15.901219 35,000 68 467 -64
2019-02-20 19:23:31 GMT 52.886368 15.884896 35,000 68 467 -64
2019-02-20 19:23:26 GMT 52.881912 15.865936 35,000 68 467 0
2019-02-20 19:23:21 GMT 52.877991 15.849348 35,000 68 469 -64
2019-02-20 19:23:17 GMT 52.871796 15.823059 35,000 68 467 0
2019-02-20 19:23:14 GMT 52.871796 15.823059 34,975 68 467 0
2019-02-20 19:23:11 GMT 52.870285 15.816803 34,975 68 467 0
2019-02-20 19:23:05 GMT 52.865570 15.796814 34,975 68 467 0
2019-02-20 19:23:02 GMT 52.863697 15.788845 34,975 68 468 0
2019-02-20 19:22:59 GMT 52.860905 15.777230 34,975 68 468 0
2019-02-20 19:22:56 GMT 52.858383 15.766602 34,975 68 468 0
2019-02-20 19:22:53 GMT 52.855545 15.754623 34,975 68 468 0
2019-02-20 19:22:49 GMT 52.853256 15.745010 34,975 68 468 0
2019-02-20 19:22:45 GMT 52.849640 15.729675 34,975 68 468 0
2019-02-20 19:22:42 GMT 52.847359 15.720023 34,975 68 468 0
2019-02-20 19:22:39 GMT 52.845310 15.711391 34,975 68 468 0
2019-02-20 19:22:36 GMT 52.843166 15.702445 34,975 68 468 0
2019-02-20 19:22:33 GMT 52.840698 15.692086 34,975 68 468 0
2019-02-20 19:22:29 GMT 52.837143 15.677185 34,975 68 468 -64
2019-02-20 19:22:26 GMT 52.835175 15.668869 35,000 68 468 -64
2019-02-20 19:22:23 GMT 52.832462 15.657558 35,000 68 468 -64
2019-02-20 19:22:19 GMT 52.828674 15.641556 35,000 68 469 0
2019-02-20 19:22:13 GMT 52.820435 15.606995 35,000 67 465 0
2019-02-20 19:22:08 GMT 52.820435 15.606995 35,000 68 469 0
2019-02-20 19:22:05 GMT 52.817184 15.593338 35,000 68 469 0
2019-02-20 19:22:02 GMT 52.815746 15.587324 35,000 68 469 0
2019-02-20 19:21:58 GMT 52.812164 15.572414 35,000 68 469 0
2019-02-20 19:21:54 GMT 52.809559 15.561428 35,000 68 469 0
2019-02-20 19:21:51 GMT 52.807663 15.553436 35,000 68 469 0
2019-02-20 19:21:47 GMT 52.804390 15.539769 35,000 68 469 0
2019-02-20 19:21:44 GMT 52.801456 15.527527 35,000 68 469 0
2019-02-20 19:21:41 GMT 52.799454 15.519209 35,000 68 469 0
2019-02-20 19:21:37 GMT 52.794937 15.500259 35,000 68 469 0
2019-02-20 19:21:33 GMT 52.792751 15.491272 35,000 68 469 0
2019-02-20 19:21:29 GMT 52.789398 15.477304 35,000 68 469 0
2019-02-20 19:21:25 GMT 52.786140 15.463649 35,000 68 469 0
2019-02-20 19:21:19 GMT 52.781719 15.445365 35,000 68 469 0
2019-02-20 19:21:16 GMT 52.779114 15.434378 35,000 68 469 0
2019-02-20 19:21:13 GMT 52.776627 15.424118 35,000 68 470 0
2019-02-20 19:21:09 GMT 52.773788 15.412445 35,000 68 470 0
2019-02-20 19:21:06 GMT 52.771385 15.402518 35,000 68 470 0
2019-02-20 19:21:03 GMT 52.768295 15.389557 35,000 68 470 0
2019-02-20 19:20:59 GMT 52.765457 15.377884 35,000 67 465 0
2019-02-20 19:20:54 GMT 52.761375 15.361006 35,000 68 470 0
2019-02-20 19:20:51 GMT 52.756897 15.342331 35,000 68 470 0
2019-02-20 19:20:48 GMT 52.756897 15.342331 35,000 68 470 0
2019-02-20 19:20:44 GMT 52.751358 15.319443 35,000 68 470 0
2019-02-20 19:20:38 GMT 52.748528 15.307800 35,000 68 469 0
2019-02-20 19:20:35 GMT 52.745872 15.296814 35,000 68 470 0
2019-02-20 19:20:32 GMT 52.743484 15.286865 35,000 68 470 0
2019-02-20 19:20:28 GMT 52.739822 15.271938 35,000 68 469 0
2019-02-20 19:20:24 GMT 52.737442 15.261993 35,000 68 470 0
2019-02-20 19:20:20 GMT 52.732910 15.243378 35,000 68 469 0
2019-02-20 19:20:17 GMT 52.731308 15.236740 35,000 68 469 0
2019-02-20 19:20:11 GMT 52.726692 15.217869 35,000 68 469 0
2019-02-20 19:20:07 GMT 52.723480 15.204607 35,000 68 469 0
2019-02-20 19:20:03 GMT 52.720413 15.191956 35,000 68 469 0
2019-02-20 19:20:00 GMT 52.718399 15.183716 35,000 67 465 0
2019-02-20 19:19:56 GMT 52.714779 15.168745 35,000 68 469 0
2019-02-20 19:19:53 GMT 52.711704 15.156189 35,000 68 469 0
2019-02-20 19:19:50 GMT 52.707561 15.139317 35,000 68 469 0
2019-02-20 19:19:47 GMT 52.707561 15.139317 35,000 68 469 0
2019-02-20 19:19:43 GMT 52.704758 15.127716 35,000 68 470 0
2019-02-20 19:19:40 GMT 52.701508 15.114441 34,975 68 469 0
2019-02-20 19:19:36 GMT 52.699173 15.104828 35,000 68 470 0
2019-02-20 19:19:33 GMT 52.696335 15.093231 35,000 68 470 0
2019-02-20 19:19:30 GMT 52.694138 15.084229 35,000 68 470 0
2019-02-20 19:19:27 GMT 52.691437 15.073318 35,000 68 470 0
2019-02-20 19:19:24 GMT 52.688690 15.062027 35,000 68 470 0
2019-02-20 19:19:21 GMT 52.686035 15.051117 34,975 68 470 0
2019-02-20 19:19:17 GMT 52.683517 15.040894 34,975 68 470 0
2019-02-20 19:19:14 GMT 52.680328 15.027963 34,975 68 470 0
2019-02-20 19:19:10 GMT 52.677750 15.017319 35,000 67 469 0
2019-02-20 19:19:07 GMT 52.675301 15.007403 34,975 68 470 -64
2019-02-20 19:19:04 GMT 52.672714 14.996796 35,000 68 470 -64
2019-02-20 19:19:01 GMT 52.667667 14.976327 35,000 68 470 0
2019-02-20 19:18:55 GMT 52.665298 14.966736 35,000 68 470 0
2019-02-20 19:18:52 GMT 52.663010 14.957493 35,000 67 469 0
2019-02-20 19:18:49 GMT 52.660355 14.946518 35,000 67 469 0
2019-02-20 19:18:45 GMT 52.657104 14.933319 35,000 67 469 0
2019-02-20 19:18:42 GMT 52.654266 14.921799 35,000 67 469 0
2019-02-20 19:18:39 GMT 52.651791 14.911900 35,000 67 469 0
2019-02-20 19:18:36 GMT 52.650101 14.904938 35,000 67 469 0
2019-02-20 19:18:33 GMT 52.646667 14.891052 35,000 67 469 0
2019-02-20 19:18:30 GMT 52.644714 14.883179 35,000 67 469 0
2019-02-20 19:18:27 GMT 52.642620 14.874547 35,000 67 469 0
2019-02-20 19:18:24 GMT 52.640247 14.864973 35,000 67 469 0
2019-02-20 19:18:21 GMT 52.637314 14.853123 35,000 67 469 0
2019-02-20 19:18:17 GMT 52.634239 14.840567 35,000 67 469 0
2019-02-20 19:18:14 GMT 52.631790 14.830704 35,000 67 468 0
2019-02-20 19:18:10 GMT 52.628494 14.817505 35,000 67 468 0
2019-02-20 19:18:07 GMT 52.626141 14.808001 35,000 67 468 0
2019-02-20 19:18:03 GMT 52.623642 14.797745 35,000 67 468 0
2019-02-20 19:17:58 GMT 52.616776 14.770126 35,000 67 468 0
2019-02-20 19:17:55 GMT 52.616776 14.770126 35,000 67 468 0
2019-02-20 19:17:51 GMT 52.610638 14.745457 35,000 67 468 0
2019-02-20 19:17:48 GMT 52.608307 14.735947 35,000 67 467 0
2019-02-20 19:17:45 GMT 52.604782 14.721832 35,000 67 467 0
2019-02-20 19:17:41 GMT 52.604782 14.721832 34,975 67 467 0
2019-02-20 19:17:38 GMT 52.598164 14.695156 35,000 67 467 0
2019-02-20 19:17:33 GMT 52.598164 14.695156 35,000 67 467 0
2019-02-20 19:17:30 GMT 52.596130 14.686966 35,000 67 467 0
2019-02-20 19:17:27 GMT 52.591133 14.666983 35,000 67 467 0
2019-02-20 19:17:24 GMT 52.589085 14.658822 35,000 67 466 0
2019-02-20 19:17:21 GMT 52.589085 14.658822 35,000 67 466 0
2019-02-20 19:17:18 GMT 52.585739 14.645386 35,000 67 466 0
2019-02-20 19:17:15 GMT 52.583359 14.635849 35,000 67 466 0
2019-02-20 19:17:12 GMT 52.581894 14.629974 35,000 67 466 0
2019-02-20 19:17:09 GMT 52.578564 14.616603 35,000 67 466 0
2019-02-20 19:17:01 GMT 52.572372 14.591675 35,000 67 466 0
2019-02-20 19:16:58 GMT 52.570175 14.582901 35,000 67 466 0
2019-02-20 19:16:54 GMT 52.566330 14.567490 35,000 67 465 0
2019-02-20 19:16:51 GMT 52.563389 14.555786 35,000 67 465 0
2019-02-20 19:16:47 GMT 52.560974 14.545975 35,000 67 465 0
2019-02-20 19:16:44 GMT 52.558453 14.535854 35,000 67 465 0
2019-02-20 19:16:41 GMT 52.556171 14.526751 35,000 67 465 0
2019-02-20 19:16:37 GMT 52.552826 14.513321 35,000 67 465 -64
2019-02-20 19:16:33 GMT 52.548771 14.497009 35,000 67 465 -64
2019-02-20 19:16:30 GMT 52.547195 14.490814 35,000 67 464 -64
2019-02-20 19:16:27 GMT 52.544537 14.480137 35,000 67 465 0
2019-02-20 19:16:22 GMT 52.540421 14.463806 35,000 67 465 0
2019-02-20 19:16:19 GMT 52.538315 14.455338 35,000 67 464 0
2019-02-20 19:16:16 GMT 52.535934 14.445953 35,000 67 465 0
2019-02-20 19:16:11 GMT 52.530987 14.426147 35,000 67 464 0
2019-02-20 19:16:08 GMT 52.529434 14.419937 35,000 67 464 0
2019-02-20 19:16:04 GMT 52.525085 14.402695 35,000 67 464 0
2019-02-20 19:16:01 GMT 52.523354 14.395935 35,000 67 464 0
2019-02-20 19:15:58 GMT 52.521168 14.387146 34,975 67 464 0
2019-02-20 19:15:55 GMT 52.518723 14.377365 34,975 67 464 0
2019-02-20 19:15:51 GMT 52.515610 14.365082 35,000 67 464 0
2019-02-20 19:15:48 GMT 52.512497 14.352722 34,975 67 463 -64
2019-02-20 19:15:45 GMT 52.507198 14.331665 35,000 67 458 0
2019-02-20 19:15:41 GMT 52.507198 14.331665 34,975 67 463 0
2019-02-20 19:15:37 GMT 52.504269 14.320051 35,000 67 463 0
2019-02-20 19:15:34 GMT 52.498352 14.296722 35,000 67 463 0
2019-02-20 19:15:31 GMT 52.498352 14.296722 35,000 67 458 0
2019-02-20 19:15:27 GMT 52.495560 14.285812 35,000 67 456 0
2019-02-20 19:15:24 GMT 52.493454 14.277344 35,000 67 461 0
2019-02-20 19:15:21 GMT 52.490662 14.266357 35,000 67 462 0
2019-02-20 19:15:18 GMT 52.487686 14.254456 35,000 67 460 0
2019-02-20 19:15:12 GMT 52.483414 14.237732 35,000 67 460 0
2019-02-20 19:15:09 GMT 52.481003 14.228058 35,000 67 459 0
2019-02-20 19:15:05 GMT 52.477592 14.214582 35,000 67 459 0
2019-02-20 19:15:02 GMT 52.475372 14.205933 35,000 67 458 0
2019-02-20 19:14:59 GMT 52.472855 14.196014 35,000 67 459 0
2019-02-20 19:14:56 GMT 52.469604 14.183197 35,000 67 458 0
2019-02-20 19:14:53 GMT 52.468048 14.177150 35,000 67 458 0
2019-02-20 19:14:50 GMT 52.465534 14.167262 35,000 67 457 0
2019-02-20 19:14:47 GMT 52.463242 14.158325 35,000 67 458 0
2019-02-20 19:14:44 GMT 52.460648 14.148036 35,000 67 458 0
2019-02-20 19:14:41 GMT 52.458206 14.138489 35,000 67 458 0
2019-02-20 19:14:38 GMT 52.456085 14.130144 35,000 67 457 0
2019-02-20 19:14:35 GMT 52.453247 14.119001 35,000 67 458 -64
2019-02-20 19:14:32 GMT 52.447613 14.096950 35,000 67 458 0
2019-02-20 19:14:29 GMT 52.447613 14.096950 35,000 67 457 0
2019-02-20 19:14:26 GMT 52.445984 14.090594 35,000 67 457 0
2019-02-20 19:14:23 GMT 52.443558 14.081039 35,000 67 457 0
2019-02-20 19:14:20 GMT 52.440628 14.069595 35,000 67 457 -64
2019-02-20 19:14:17 GMT 52.438908 14.062892 34,975 67 456 0
2019-02-20 19:14:13 GMT 52.435089 14.047904 35,000 67 456 0
2019-02-20 19:14:10 GMT 52.430622 14.030483 35,000 67 456 0
2019-02-20 19:14:07 GMT 52.430622 14.030483 35,000 67 456 0
2019-02-20 19:14:03 GMT 52.424850 14.007882 35,000 67 456 0
2019-02-20 19:13:57 GMT 52.422729 13.999634 35,000 67 456 0
2019-02-20 19:13:54 GMT 52.419662 13.987579 35,000 67 456 0
2019-02-20 19:13:50 GMT 52.414444 13.967209 34,975 67 456 0
2019-02-20 19:13:47 GMT 52.414444 13.967209 35,000 67 456 0
2019-02-20 19:13:44 GMT 52.412247 13.958664 34,975 67 456 0
2019-02-20 19:13:41 GMT 52.409866 13.949432 35,000 67 456 0
2019-02-20 19:13:38 GMT 52.406616 13.936768 35,000 67 455 0
2019-02-20 19:13:35 GMT 52.404411 13.928231 35,000 67 455 -64
2019-02-20 19:13:32 GMT 52.402084 13.918971 35,000 67 456 0
2019-02-20 19:13:29 GMT 52.400036 13.911046 35,000 67 455 0
2019-02-20 19:13:26 GMT 52.397003 13.899384 35,000 67 455 0
2019-02-20 19:13:23 GMT 52.394264 13.888602 35,000 67 455 0
2019-02-20 19:13:19 GMT 52.391563 13.878087 35,000 67 455 0
2019-02-20 19:13:15 GMT 52.388634 13.866708 35,000 67 455 0
2019-02-20 19:13:12 GMT 52.385605 13.854980 34,975 67 455 0
2019-02-20 19:13:09 GMT 52.382812 13.844186 35,000 67 455 0
2019-02-20 19:13:05 GMT 52.380203 13.834076 35,000 67 456 0
2019-02-20 19:13:02 GMT 52.377598 13.823940 34,975 67 455 0
2019-02-20 19:12:59 GMT 52.375225 13.814758 34,975 67 456 0
2019-02-20 19:12:56 GMT 52.372192 13.803024 35,000 67 456 0
2019-02-20 19:12:53 GMT 52.370132 13.795090 35,000 67 456 0
2019-02-20 19:12:50 GMT 52.368103 13.787136 35,000 67 457 0
2019-02-20 19:12:47 GMT 52.365543 13.777326 35,000 67 457 0
2019-02-20 19:12:44 GMT 52.362610 13.765869 35,000 67 456 0
2019-02-20 19:12:41 GMT 52.360466 13.757629 35,000 67 456 0
2019-02-20 19:12:37 GMT 52.357590 13.746567 35,000 67 456 0
2019-02-20 19:12:34 GMT 52.354156 13.733292 35,000 67 456 0
2019-02-20 19:12:30 GMT 52.350925 13.720904 35,000 67 456 0
2019-02-20 19:12:27 GMT 52.349075 13.713608 35,000 67 456 0
2019-02-20 19:12:24 GMT 52.345779 13.700943 35,000 67 456 0
2019-02-20 19:12:21 GMT 52.343803 13.693359 34,975 66 453 0
2019-02-20 19:12:18 GMT 52.341339 13.683929 35,000 67 456 0
2019-02-20 19:12:15 GMT 52.339611 13.677272 35,000 67 456 0
2019-02-20 19:12:12 GMT 52.336624 13.665848 35,000 66 455 0
2019-02-20 19:12:09 GMT 52.334164 13.656398 35,000 66 455 0
2019-02-20 19:12:06 GMT 52.330723 13.643136 35,000 66 455 0
2019-02-20 19:12:03 GMT 52.328384 13.634262 35,000 66 455 0
2019-02-20 19:12:00 GMT 52.326736 13.627930 35,000 66 455 0
2019-02-20 19:11:56 GMT 52.322891 13.613129 35,000 66 455 0
2019-02-20 19:11:53 GMT 52.321060 13.606186 35,000 66 455 0
2019-02-20 19:11:50 GMT 52.318542 13.596344 35,000 66 455 0
2019-02-20 19:11:46 GMT 52.314568 13.581220 35,000 66 455 0
2019-02-20 19:11:43 GMT 52.312519 13.573373 35,000 66 455 0
2019-02-20 19:11:40 GMT 52.309708 13.562622 35,000 66 455 0
2019-02-20 19:11:37 GMT 52.307072 13.552499 35,000 66 455 0
2019-02-20 19:11:32 GMT 52.303814 13.539865 35,000 66 455 0
2019-02-20 19:11:29 GMT 52.300919 13.528900 35,000 66 455 0
2019-02-20 19:11:26 GMT 52.298950 13.521271 35,000 66 454 0
2019-02-20 19:11:23 GMT 52.296844 13.513412 35,000 66 454 0
2019-02-20 19:11:20 GMT 52.294083 13.502747 35,000 66 454 0
2019-02-20 19:11:17 GMT 52.291580 13.493271 35,000 66 454 0
2019-02-20 19:11:14 GMT 52.288467 13.481293 35,000 66 454 0
2019-02-20 19:11:10 GMT 52.284805 13.467484 35,000 66 454 0
2019-02-20 19:11:06 GMT 52.281281 13.453936 35,000 66 454 0
2019-02-20 19:11:03 GMT 52.279373 13.446716 35,000 66 454 0
2019-02-20 19:11:00 GMT 52.277233 13.438555 35,000 66 454 0
2019-02-20 19:10:57 GMT 52.274918 13.429718 35,000 66 454 0
2019-02-20 19:10:54 GMT 52.272297 13.419643 35,000 66 454 -64
2019-02-20 19:10:51 GMT 52.266495 13.397675 35,000 66 454 0
2019-02-20 19:10:48 GMT 52.266495 13.397675 35,000 66 454 0
2019-02-20 19:10:44 GMT 52.264618 13.390427 35,000 66 454 0
2019-02-20 19:10:41 GMT 52.258896 13.368759 35,000 66 454 0
2019-02-20 19:10:38 GMT 52.255829 13.357162 35,000 66 453 0
2019-02-20 19:10:31 GMT 52.252792 13.345564 35,000 66 453 0
2019-02-20 19:10:28 GMT 52.250290 13.336105 35,000 66 453 0
2019-02-20 19:10:25 GMT 52.247810 13.326730 35,000 66 453 0
2019-02-20 19:10:22 GMT 52.245064 13.316371 35,000 66 453 0
2019-02-20 19:10:19 GMT 52.243759 13.311349 35,000 66 454 0
2019-02-20 19:10:16 GMT 52.238708 13.292236 35,000 66 454 0
2019-02-20 19:10:10 GMT 52.235802 13.281215 35,000 66 454 0
2019-02-20 19:10:07 GMT 52.233719 13.273392 35,000 66 454 0
2019-02-20 19:10:04 GMT 52.231564 13.265285 35,000 66 454 0
2019-02-20 19:10:01 GMT 52.227932 13.251474 35,000 66 454 0
2019-02-20 19:09:58 GMT 52.226028 13.244247 35,000 66 454 0
2019-02-20 19:09:55 GMT 52.223602 13.235168 35,000 66 454 0
2019-02-20 19:09:50 GMT 52.218296 13.215140 35,000 66 454 0
2019-02-20 19:09:47 GMT 52.216965 13.210144 35,000 66 454 0
2019-02-20 19:09:44 GMT 52.214127 13.199463 35,000 66 454 0
2019-02-20 19:09:41 GMT 52.212059 13.191677 35,000 66 454 0
2019-02-20 19:09:38 GMT 52.209221 13.181004 34,975 66 454 0
2019-02-20 19:09:35 GMT 52.204983 13.165074 35,000 66 454 0
2019-02-20 19:09:29 GMT 52.201996 13.153763 35,000 66 454 0
2019-02-20 19:09:26 GMT 52.199863 13.145612 35,000 66 454 0
2019-02-20 19:09:23 GMT 52.194092 13.124032 34,975 66 454 0
2019-02-20 19:09:20 GMT 52.194092 13.124032 35,000 66 454 0
2019-02-20 19:09:17 GMT 52.191833 13.115616 35,000 66 454 0
2019-02-20 19:09:14 GMT 52.189342 13.106219 34,975 66 454 0
2019-02-20 19:09:11 GMT 52.183849 13.085580 35,000 66 454 0
2019-02-20 19:09:08 GMT 52.181763 13.077774 34,975 66 454 0
2019-02-20 19:09:05 GMT 52.179245 13.068390 34,975 66 454 0
2019-02-20 19:09:02 GMT 52.179245 13.068390 34,975 66 454 0
2019-02-20 19:08:58 GMT 52.175468 13.054269 35,000 66 454 -64
2019-02-20 19:08:55 GMT 52.172791 13.044281 35,000 66 454 0
2019-02-20 19:08:51 GMT 52.167938 13.026123 35,000 66 454 0
2019-02-20 19:08:48 GMT 52.167938 13.026123 35,000 66 454 0
2019-02-20 19:08:45 GMT 52.165192 13.015823 35,000 66 454 0
2019-02-20 19:08:42 GMT 52.162155 13.004595 35,000 66 454 0
2019-02-20 19:08:38 GMT 52.159241 12.993622 34,975 66 456 0
2019-02-20 19:08:35 GMT 52.155899 12.981110 35,000 66 454 0
2019-02-20 19:08:32 GMT 52.154022 12.974243 35,000 66 454 0
2019-02-20 19:08:29 GMT 52.151447 12.964495 35,000 66 454 0
2019-02-20 19:08:26 GMT 52.149033 12.955475 35,000 66 454 0
2019-02-20 19:08:22 GMT 52.145554 12.942657 35,000 66 454 0
2019-02-20 19:08:19 GMT 52.143997 12.936707 35,000 66 454 0
2019-02-20 19:08:16 GMT 52.139854 12.921334 35,000 66 454 0
2019-02-20 19:08:13 GMT 52.137344 12.911996 35,000 66 454 0
2019-02-20 19:08:10 GMT 52.135761 12.906032 35,000 66 454 0
2019-02-20 19:08:07 GMT 52.133240 12.896652 35,000 66 454 0
2019-02-20 19:08:04 GMT 52.130547 12.886649 35,000 66 454 0
2019-02-20 19:08:00 GMT 52.126915 12.873230 35,000 66 454 0
2019-02-20 19:07:56 GMT 52.123718 12.861404 34,975 66 454 0
2019-02-20 19:07:53 GMT 52.121655 12.853533 35,000 66 454 0
2019-02-20 19:07:50 GMT 52.116253 12.833601 34,975 66 455 0
2019-02-20 19:07:47 GMT 52.116253 12.833601 34,975 66 455 0
2019-02-20 19:07:44 GMT 52.113373 12.822952 34,975 66 455 0
2019-02-20 19:07:41 GMT 52.110947 12.813904 34,975 66 455 0
2019-02-20 19:07:35 GMT 52.105549 12.793893 34,975 66 455 0
2019-02-20 19:07:32 GMT 52.103683 12.786987 35,000 66 455 0
2019-02-20 19:07:29 GMT 52.101654 12.779541 35,000 66 455 0
2019-02-20 19:07:25 GMT 52.097958 12.765799 34,975 66 455 0
2019-02-20 19:07:22 GMT 52.094746 12.753871 34,975 66 455 0
2019-02-20 19:07:19 GMT 52.092957 12.747345 34,975 66 455 0
2019-02-20 19:07:15 GMT 52.088654 12.731400 34,975 66 456 0
2019-02-20 19:07:12 GMT 52.086788 12.724444 35,000 66 456 0
2019-02-20 19:07:08 GMT 52.083481 12.712280 35,000 66 456 0
2019-02-20 19:07:05 GMT 52.080505 12.701340 34,975 66 456 0
2019-02-20 19:07:02 GMT 52.078125 12.692566 35,000 66 456 0
2019-02-20 19:06:58 GMT 52.074821 12.680341 34,975 66 456 0
2019-02-20 19:06:54 GMT 52.070984 12.666321 35,000 66 456 0
2019-02-20 19:06:51 GMT 52.069153 12.659378 35,000 66 456 0
2019-02-20 19:06:46 GMT 52.065327 12.645342 34,975 66 456 0
2019-02-20 19:06:43 GMT 52.062149 12.633743 34,975 66 457 0
2019-02-20 19:06:40 GMT 52.060272 12.626877 35,000 66 457 0
2019-02-20 19:06:37 GMT 52.056808 12.614031 35,000 66 457 0
2019-02-20 19:06:34 GMT 52.053734 12.602731 35,000 66 457 0
2019-02-20 19:06:31 GMT 52.051254 12.593689 35,000 66 457 0
2019-02-20 19:06:27 GMT 52.044525 12.568970 35,000 66 457 0
2019-02-20 19:06:22 GMT 52.044525 12.568970 35,000 66 457 0
2019-02-20 19:06:19 GMT 52.042191 12.560512 35,000 66 457 0
2019-02-20 19:06:16 GMT 52.039810 12.551727 35,000 66 457 0
2019-02-20 19:06:13 GMT 52.036232 12.538618 35,000 66 457 0
2019-02-20 19:06:10 GMT 52.033905 12.530136 35,000 66 457 0
2019-02-20 19:06:07 GMT 52.031670 12.521981 35,000 65 457 0
2019-02-20 19:06:04 GMT 52.028183 12.509155 35,000 66 457 0
2019-02-20 19:06:01 GMT 52.023895 12.493574 35,000 66 457 0
2019-02-20 19:05:55 GMT 52.020767 12.481995 35,000 66 457 0
2019-02-20 19:05:51 GMT 52.017841 12.471366 35,000 66 457 0
2019-02-20 19:05:48 GMT 52.015869 12.464218 35,000 65 456 0
2019-02-20 19:05:45 GMT 52.011932 12.449875 35,000 66 456 0
2019-02-20 19:05:41 GMT 52.008949 12.438956 35,000 65 456 0
2019-02-20 19:05:37 GMT 52.005707 12.427063 35,000 65 456 0
2019-02-20 19:05:34 GMT 52.003132 12.417690 35,000 65 456 0
2019-02-20 19:05:31 GMT 52.000626 12.408676 35,000 65 456 -64
2019-02-20 19:05:28 GMT 51.998058 12.399327 35,000 65 456 0
2019-02-20 19:05:25 GMT 51.994801 12.387477 35,000 65 456 0
2019-02-20 19:05:21 GMT 51.991402 12.375000 35,000 65 456 0
2019-02-20 19:05:18 GMT 51.989090 12.366562 35,000 66 456 0
2019-02-20 19:05:13 GMT 51.985023 12.351929 35,000 65 455 0
2019-02-20 19:05:10 GMT 51.981953 12.340707 35,000 65 456 0
2019-02-20 19:05:07 GMT 51.980228 12.334508 35,000 65 456 0
2019-02-20 19:05:04 GMT 51.977669 12.325169 35,000 65 455 0
2019-02-20 19:05:01 GMT 51.974579 12.313995 35,000 65 455 0
2019-02-20 19:04:58 GMT 51.971832 12.304001 35,000 65 455 0
2019-02-20 19:04:55 GMT 51.969772 12.296524 35,000 65 455 0
2019-02-20 19:04:52 GMT 51.967381 12.287816 35,000 65 455 0
2019-02-20 19:04:49 GMT 51.965145 12.279733 35,000 65 455 0
2019-02-20 19:04:46 GMT 51.958767 12.256740 35,000 65 455 0
2019-02-20 19:04:42 GMT 51.958767 12.256740 35,000 65 455 0
2019-02-20 19:04:39 GMT 51.955444 12.244568 35,000 65 455 0
2019-02-20 19:04:36 GMT 51.953522 12.237778 35,000 65 455 0
2019-02-20 19:04:33 GMT 51.950867 12.228088 35,000 65 455 0
2019-02-20 19:04:30 GMT 51.948711 12.220328 35,000 65 456 0
2019-02-20 19:04:27 GMT 51.942581 12.198257 35,000 65 457 0
2019-02-20 19:04:24 GMT 51.942581 12.198257 35,000 65 457 0
2019-02-20 19:04:21 GMT 51.940102 12.189253 34,975 65 457 0
2019-02-20 19:04:17 GMT 51.936657 12.176775 35,000 65 457 0
2019-02-20 19:04:14 GMT 51.934479 12.169037 35,000 65 457 0
2019-02-20 19:04:11 GMT 51.931915 12.159653 35,000 65 457 0
2019-02-20 19:04:08 GMT 51.928509 12.147505 35,000 65 457 0
2019-02-20 19:04:05 GMT 51.926697 12.140961 35,000 65 457 0
2019-02-20 19:04:02 GMT 51.921616 12.122650 35,000 65 457 0
2019-02-20 19:03:56 GMT 51.918407 12.111093 35,000 65 457 0
2019-02-20 19:03:50 GMT 51.913986 12.095241 34,975 65 458 0
2019-02-20 19:03:46 GMT 51.910355 12.082136 35,000 65 457 0
2019-02-20 19:03:43 GMT 51.907837 12.073135 35,000 65 457 0
2019-02-20 19:03:39 GMT 51.904724 12.061920 35,000 65 457 0
2019-02-20 19:03:35 GMT 51.900970 12.048492 35,000 65 457 0
2019-02-20 19:03:32 GMT 51.897598 12.036386 35,000 65 458 0
2019-02-20 19:03:25 GMT 51.891678 12.015183 34,975 65 458 0
2019-02-20 19:03:22 GMT 51.889069 12.005830 35,000 65 458 0
2019-02-20 19:03:19 GMT 51.886986 11.998367 35,000 65 458 -64
2019-02-20 19:03:14 GMT 51.882431 11.982150 35,000 65 458 -64
2019-02-20 19:03:11 GMT 51.878883 11.969376 35,000 65 458 0
2019-02-20 19:03:08 GMT 51.874508 11.953812 35,000 65 458 0
2019-02-20 19:03:05 GMT 51.871204 11.941986 35,000 65 458 0
2019-02-20 19:03:01 GMT 51.871204 11.941986 35,000 65 458 0
2019-02-20 19:02:58 GMT 51.868561 11.932637 35,000 65 458 0
2019-02-20 19:02:55 GMT 51.866035 11.923599 35,000 65 458 0
2019-02-20 19:02:51 GMT 51.862637 11.911469 35,000 65 458 0
2019-02-20 19:02:48 GMT 51.859680 11.900866 35,000 65 458 0
2019-02-20 19:02:45 GMT 51.857117 11.891809 35,000 65 459 0
2019-02-20 19:02:42 GMT 51.851166 11.870653 35,000 65 459 0
2019-02-20 19:02:39 GMT 51.849182 11.863480 35,000 65 459 0
2019-02-20 19:02:33 GMT 51.846909 11.855362 35,000 65 464 0
2019-02-20 19:02:30 GMT 51.843739 11.844177 35,000 65 459 0
2019-02-20 19:02:25 GMT 51.839455 11.828918 35,000 65 459 0
2019-02-20 19:02:22 GMT 51.836380 11.818023 35,000 65 459 0
2019-02-20 19:02:19 GMT 51.834705 11.812057 35,000 65 459 0
2019-02-20 19:02:16 GMT 51.832169 11.803028 35,000 65 459 0
2019-02-20 19:02:13 GMT 51.829075 11.792145 35,000 65 459 0
2019-02-20 19:02:09 GMT 51.825722 11.780243 35,000 65 460 0
2019-02-20 19:02:05 GMT 51.822281 11.768139 34,975 65 460 0
2019-02-20 19:02:02 GMT 51.820084 11.760345 35,000 65 460 0
2019-02-20 19:01:59 GMT 51.816040 11.745987 35,000 65 460 0
2019-02-20 19:01:55 GMT 51.813293 11.736298 35,000 65 460 0
2019-02-20 19:01:52 GMT 51.810825 11.727600 35,000 65 459 0
2019-02-20 19:01:49 GMT 51.807495 11.715731 34,975 65 459 0
2019-02-20 19:01:45 GMT 51.804291 11.704225 34,975 65 459 0
2019-02-20 19:01:41 GMT 51.801189 11.693649 34,975 65 459 0
2019-02-20 19:01:38 GMT 51.798294 11.683366 34,975 65 460 0
2019-02-20 19:01:35 GMT 51.794724 11.670895 34,975 65 460 0
2019-02-20 19:01:32 GMT 51.792530 11.663132 34,975 65 460 0
2019-02-20 19:01:29 GMT 51.789780 11.653451 34,975 65 460 0
2019-02-20 19:01:26 GMT 51.787399 11.645062 34,975 65 462 -64
2019-02-20 19:01:23 GMT 51.784836 11.636006 34,975 65 460 0
2019-02-20 19:01:19 GMT 51.781452 11.624146 34,975 65 462 -64
2019-02-20 19:01:16 GMT 51.778008 11.611938 34,975 65 460 0
2019-02-20 19:01:13 GMT 51.776276 11.606016 34,975 65 462 -64
2019-02-20 19:01:09 GMT 51.769455 11.582039 35,000 65 462 -64
2019-02-20 19:01:06 GMT 51.769455 11.582039 35,000 65 462 0
2019-02-20 19:01:00 GMT 51.764191 11.563556 35,000 65 462 0
2019-02-20 19:00:57 GMT 51.761993 11.555786 34,975 65 463 0
2019-02-20 19:00:54 GMT 51.759018 11.545443 34,975 65 462 0
2019-02-20 19:00:51 GMT 51.755661 11.533585 35,000 65 463 0
2019-02-20 19:00:47 GMT 51.753159 11.524807 35,000 65 463 0
2019-02-20 19:00:44 GMT 51.749470 11.511993 35,000 65 463 0
2019-02-20 19:00:41 GMT 51.747757 11.506026 35,000 65 463 0
2019-02-20 19:00:38 GMT 51.744278 11.493852 35,000 65 464 0
2019-02-20 19:00:35 GMT 51.742115 11.486359 34,975 65 463 0
2019-02-20 19:00:32 GMT 51.739086 11.475677 34,975 65 463 0
2019-02-20 19:00:29 GMT 51.736572 11.466904 34,975 65 463 0
2019-02-20 19:00:26 GMT 51.734573 11.460037 34,975 65 464 0
2019-02-20 19:00:23 GMT 51.731777 11.450348 35,000 65 464 0
2019-02-20 19:00:20 GMT 51.728577 11.439069 35,000 65 464 0
2019-02-20 19:00:17 GMT 51.725418 11.428082 35,000 65 464 0
2019-02-20 19:00:13 GMT 51.720200 11.409896 35,000 65 465 0
2019-02-20 19:00:07 GMT 51.713745 11.387329 35,000 65 464 0
2019-02-20 19:00:04 GMT 51.713745 11.387329 35,000 65 464 0
2019-02-20 19:00:01 GMT 51.711136 11.378199 35,000 65 464 -64
2019-02-20 18:59:58 GMT 51.708984 11.370701 35,000 65 464 0
2019-02-20 18:59:55 GMT 51.706833 11.363129 35,000 65 465 0
2019-02-20 18:59:52 GMT 51.702438 11.347763 35,000 65 465 0
2019-02-20 18:59:49 GMT 51.700653 11.341528 35,000 65 465 0
2019-02-20 18:59:46 GMT 51.696865 11.328278 35,000 65 465 0
2019-02-20 18:59:43 GMT 51.695023 11.321708 35,000 65 465 0
2019-02-20 18:59:40 GMT 51.692303 11.312027 35,000 65 465 0
2019-02-20 18:59:33 GMT 51.683945 11.283107 35,000 65 465 0
2019-02-20 18:59:27 GMT 51.680992 11.272736 35,000 65 465 0
2019-02-20 18:59:24 GMT 51.677902 11.262100 35,000 65 466 0
2019-02-20 18:59:21 GMT 51.675476 11.253637 35,000 65 465 0
2019-02-20 18:59:18 GMT 51.673218 11.245804 35,000 65 466 0
2019-02-20 18:59:15 GMT 51.670238 11.235428 35,000 65 466 0
2019-02-20 18:59:12 GMT 51.667629 11.226349 35,000 65 465 0
2019-02-20 18:59:08 GMT 51.662930 11.210022 35,000 65 465 0
2019-02-20 18:59:04 GMT 51.659950 11.199722 35,000 65 465 0
2019-02-20 18:59:01 GMT 51.657158 11.189957 35,000 65 465 0
2019-02-20 18:58:58 GMT 51.654236 11.179925 35,000 64 465 0
2019-02-20 18:58:55 GMT 51.652771 11.174952 35,000 64 465 0
2019-02-20 18:58:52 GMT 51.646870 11.154633 35,000 64 465 0
2019-02-20 18:58:46 GMT 51.644028 11.144943 35,000 64 465 0
2019-02-20 18:58:43 GMT 51.641281 11.135534 35,000 64 465 -64
2019-02-20 18:58:40 GMT 51.638031 11.124325 35,000 64 465 -64
2019-02-20 18:58:36 GMT 51.634735 11.113042 35,000 65 465 0
2019-02-20 18:58:30 GMT 51.628693 11.092034 35,000 64 465 0
2019-02-20 18:58:26 GMT 51.625641 11.081772 35,000 64 465 0
2019-02-20 18:58:23 GMT 51.622925 11.072808 35,000 63 464 0
2019-02-20 18:58:20 GMT 51.619583 11.062342 35,000 61 462 0
2019-02-20 18:58:16 GMT 51.615074 11.048737 35,000 60 461 0
2019-02-20 18:58:13 GMT 51.612045 11.040039 35,000 58 461 0
2019-02-20 18:58:09 GMT 51.607361 11.027007 35,000 59 460 0
2019-02-20 18:58:06 GMT 51.605713 11.022628 35,000 50 454 0
2019-02-20 18:58:03 GMT 51.602131 11.013336 35,000 50 454 0
2019-02-20 18:58:00 GMT 51.598221 11.003571 35,000 54 457 0
2019-02-20 18:57:54 GMT 51.590195 10.984398 35,000 54 458 0
2019-02-20 18:57:50 GMT 51.586761 10.976678 35,000 53 457 -64
2019-02-20 18:57:47 GMT 51.577606 10.957229 35,000 52 456 0
2019-02-20 18:57:44 GMT 51.577606 10.957229 35,000 50 455 0
2019-02-20 18:57:41 GMT 51.574852 10.951691 35,000 50 454 0
2019-02-20 18:57:38 GMT 51.569965 10.941925 35,000 50 454 0
2019-02-20 18:57:35 GMT 51.567867 10.937805 35,000 50 453 0
2019-02-20 18:57:32 GMT 51.562004 10.926285 35,000 50 454 0
2019-02-20 18:57:29 GMT 51.558838 10.920039 35,000 50 455 0
2019-02-20 18:57:26 GMT 51.554993 10.912467 35,000 50 454 0
2019-02-20 18:57:22 GMT 51.550873 10.904302 35,000 50 454 0
2019-02-20 18:57:19 GMT 51.546364 10.895462 35,000 50 454 0
2019-02-20 18:57:16 GMT 51.542404 10.887600 35,000 50 455 0
2019-02-20 18:57:13 GMT 51.537094 10.877133 35,000 50 455 0
2019-02-20 18:57:08 GMT 51.531784 10.866666 35,000 50 455 0
2019-02-20 18:57:05 GMT 51.526474 10.856274 35,000 50 455 0
2019-02-20 18:57:01 GMT 51.522202 10.847855 35,000 50 454 -64
2019-02-20 18:56:58 GMT 51.517685 10.839005 35,000 50 455 0
2019-02-20 18:56:55 GMT 51.514519 10.832748 35,000 50 455 0
2019-02-20 18:56:52 GMT 51.509445 10.822830 35,000 50 455 0
2019-02-20 18:56:49 GMT 51.504822 10.813665 35,000 50 455 0
2019-02-20 18:56:46 GMT 51.502258 10.808691 35,000 50 455 0
2019-02-20 18:56:43 GMT 51.498833 10.801926 35,000 50 455 0
2019-02-20 18:56:40 GMT 51.492966 10.790405 35,000 50 455 0
2019-02-20 18:56:37 GMT 51.490448 10.785456 35,000 50 455 0
2019-02-20 18:56:34 GMT 51.486172 10.777130 35,000 50 455 0
2019-02-20 18:56:31 GMT 51.481377 10.767746 35,000 50 455 0
2019-02-20 18:56:28 GMT 51.478069 10.761185 35,000 50 455 0
2019-02-20 18:56:25 GMT 51.474579 10.754395 35,000 50 456 0
2019-02-20 18:56:22 GMT 51.470482 10.746307 35,000 50 456 0
2019-02-20 18:56:19 GMT 51.464630 10.734830 35,000 50 455 0
2019-02-20 18:56:16 GMT 51.462616 10.730970 35,000 50 456 0
2019-02-20 18:56:13 GMT 51.457680 10.721283 35,000 50 455 -64
2019-02-20 18:56:10 GMT 51.455025 10.716095 35,000 50 456 0
2019-02-20 18:56:07 GMT 51.443573 10.693706 35,000 50 455 0
2019-02-20 18:56:03 GMT 51.443573 10.693706 35,000 50 455 0
2019-02-20 18:55:59 GMT 51.439178 10.685095 35,000 50 454 0
2019-02-20 18:55:56 GMT 51.435429 10.677872 35,000 50 454 64
2019-02-20 18:55:53 GMT 51.432632 10.672401 35,000 50 454 0
2019-02-20 18:55:50 GMT 51.428398 10.664062 35,000 50 454 0
2019-02-20 18:55:47 GMT 51.423744 10.654984 35,000 50 454 64
2019-02-20 18:55:44 GMT 51.418533 10.644861 34,975 50 454 0
2019-02-20 18:55:41 GMT 51.414688 10.637364 34,975 50 454 0
2019-02-20 18:55:37 GMT 51.410156 10.628604 34,975 50 454 0
2019-02-20 18:55:33 GMT 51.403748 10.616133 34,975 50 454 0
2019-02-20 18:55:29 GMT 51.399769 10.608368 35,000 50 454 -64
2019-02-20 18:55:26 GMT 51.395252 10.599594 35,000 50 454 0
2019-02-20 18:55:22 GMT 51.390747 10.590746 35,000 50 454 0
2019-02-20 18:55:19 GMT 51.386734 10.582962 35,000 50 454 0
2019-02-20 18:55:16 GMT 51.381149 10.572128 34,975 50 454 0
2019-02-20 18:55:12 GMT 51.376911 10.563812 34,975 50 454 0
2019-02-20 18:55:09 GMT 51.371979 10.554276 34,975 50 454 0
2019-02-20 18:55:06 GMT 51.368393 10.547256 34,975 50 454 0
2019-02-20 18:55:03 GMT 51.364807 10.540314 35,000 50 454 0
2019-02-20 18:55:00 GMT 51.361362 10.533524 34,975 50 454 0
2019-02-20 18:54:57 GMT 51.357498 10.526047 34,975 50 457 1600
2019-02-20 18:54:54 GMT 51.353210 10.517776 34,975 50 454 0
2019-02-20 18:54:51 GMT 51.350143 10.511838 35,000 50 454 0
2019-02-20 18:54:48 GMT 51.344833 10.501519 34,975 50 454 0
2019-02-20 18:54:45 GMT 51.339890 10.491943 34,975 50 454 0
2019-02-20 18:54:42 GMT 51.337063 10.486450 34,975 50 454 0
2019-02-20 18:54:39 GMT 51.331757 10.476151 35,000 50 454 0
2019-02-20 18:54:34 GMT 51.325191 10.463486 34,975 50 455 0
2019-02-20 18:54:30 GMT 51.321327 10.455933 35,000 50 455 0
2019-02-20 18:54:27 GMT 51.316910 10.447404 34,975 50 455 0
2019-02-20 18:54:23 GMT 51.307690 10.429535 35,000 50 456 0
2019-02-20 18:54:20 GMT 51.307690 10.429535 35,000 50 456 0
2019-02-20 18:54:17 GMT 51.304615 10.423584 34,975 50 455 0
2019-02-20 18:54:14 GMT 51.298985 10.412750 35,000 50 455 0
2019-02-20 18:54:11 GMT 51.295773 10.406494 34,975 50 455 0
2019-02-20 18:54:08 GMT 51.288231 10.391998 34,975 50 455 0
2019-02-20 18:54:02 GMT 51.283676 10.383194 34,975 50 455 0
2019-02-20 18:53:59 GMT 51.279011 10.374146 34,975 50 456 0
2019-02-20 18:53:56 GMT 51.275520 10.367432 34,975 50 456 0
2019-02-20 18:53:53 GMT 51.270123 10.357132 34,975 50 456 -64
2019-02-20 18:53:50 GMT 51.267326 10.351639 34,975 50 456 -64
2019-02-20 18:53:44 GMT 51.258316 10.334349 34,975 50 457 1600
2019-02-20 18:53:41 GMT 51.255363 10.328598 35,000 50 456 0
2019-02-20 18:53:38 GMT 51.251221 10.320587 34,975 50 457 -64
2019-02-20 18:53:34 GMT 51.246517 10.311584 34,975 50 456 0
2019-02-20 18:53:30 GMT 51.240692 10.300425 34,975 50 457 -64
2019-02-20 18:53:27 GMT 51.235996 10.291367 34,975 50 457 -64
2019-02-20 18:53:24 GMT 51.231853 10.283356 34,975 50 457 0
2019-02-20 18:53:21 GMT 51.227280 10.274518 34,975 50 457 -64
2019-02-20 18:53:18 GMT 51.224453 10.269089 34,975 50 457 -128
2019-02-20 18:53:15 GMT 51.220413 10.261379 35,000 50 457 64
2019-02-20 18:53:12 GMT 51.216213 10.253372 35,000 50 457 0
2019-02-20 18:53:09 GMT 51.213234 10.247650 34,975 50 457 64
2019-02-20 18:53:06 GMT 51.208530 10.238647 34,975 50 457 384
2019-02-20 18:53:03 GMT 51.204620 10.231094 34,975 50 457 448
2019-02-20 18:53:00 GMT 51.196381 10.215355 34,900 50 457 576
2019-02-20 18:52:57 GMT 51.191681 10.206299 34,875 50 457 960
2019-02-20 18:52:54 GMT 51.191681 10.206299 34,825 50 456 1280
2019-02-20 18:52:51 GMT 51.187492 10.198288 34,625 50 457 1600
2019-02-20 18:52:47 GMT 51.182648 10.189003 34,625 50 459 1536
2019-02-20 18:52:44 GMT 51.177795 10.179724 34,600 50 457 1600
2019-02-20 18:52:41 GMT 51.174408 10.173266 34,450 50 457 1600
2019-02-20 18:52:37 GMT 51.165070 10.155376 34,125 50 460 1536
2019-02-20 18:52:34 GMT 51.165070 10.155376 34,225 50 460 1536
2019-02-20 18:52:30 GMT 51.159348 10.144464 34,275 50 460 1536
2019-02-20 18:52:27 GMT 51.155823 10.137709 34,200 50 460 1472
2019-02-20 18:52:24 GMT 51.151886 10.130211 34,125 50 461 1472
2019-02-20 18:52:21 GMT 51.143692 10.114548 33,925 50 462 1408
2019-02-20 18:52:18 GMT 51.143692 10.114548 33,950 50 462 1408
2019-02-20 18:52:15 GMT 51.138100 10.103836 33,875 50 462 1408
2019-02-20 18:52:12 GMT 51.136189 10.100250 33,850 50 462 1408
2019-02-20 18:52:09 GMT 51.130005 10.088493 33,775 50 463 1472
2019-02-20 18:52:06 GMT 51.127808 10.084262 33,300 50 465 1600
2019-02-20 18:52:03 GMT 51.123436 10.075912 33,625 50 464 1536
2019-02-20 18:52:00 GMT 51.118641 10.066757 33,450 50 465 1536
2019-02-20 18:51:57 GMT 51.113525 10.057093 33,350 50 465 1600
2019-02-20 18:51:53 GMT 51.108582 10.047591 33,225 50 466 1600
2019-02-20 18:51:50 GMT 51.100571 10.032373 33,150 50 467 1600
2019-02-20 18:51:44 GMT 51.095318 10.022430 33,050 50 467 1664
2019-02-20 18:51:40 GMT 51.091049 10.014261 32,800 50 467 1664
2019-02-20 18:51:37 GMT 51.083027 9.998932 32,825 50 468 1600
2019-02-20 18:51:31 GMT 51.077866 9.989245 32,650 50 469 1600
2019-02-20 18:51:27 GMT 51.073837 9.981524 32,625 50 470 1664
2019-02-20 18:51:24 GMT 51.069260 9.972839 32,450 50 470 1728
2019-02-20 18:51:21 GMT 51.063568 9.962006 32,100 49 469 1408
2019-02-20 18:51:18 GMT 51.060078 9.955368 32,100 50 472 1664
2019-02-20 18:51:15 GMT 51.055069 9.945819 32,275 50 471 1664
2019-02-20 18:51:11 GMT 51.047367 9.931259 32,100 50 472 1664
2019-02-20 18:51:05 GMT 51.041782 9.920654 31,925 49 472 1472
2019-02-20 18:51:02 GMT 51.032799 9.903717 31,850 49 472 1216
2019-02-20 18:50:59 GMT 51.032799 9.903717 31,775 50 472 1152
2019-02-20 18:50:55 GMT 51.027771 9.894104 31,625 50 472 1152
2019-02-20 18:50:51 GMT 51.023163 9.885406 31,675 49 471 1280
2019-02-20 18:50:48 GMT 51.018833 9.877167 31,575 49 471 1280
2019-02-20 18:50:45 GMT 51.013760 9.867706 31,500 50 470 1344
2019-02-20 18:50:42 GMT 51.010574 9.861566 31,475 49 471 1280
2019-02-20 18:50:39 GMT 51.004990 9.851025 31,425 49 471 1280
2019-02-20 18:50:34 GMT 50.998123 9.838108 31,275 50 470 1344
2019-02-20 18:50:31 GMT 50.993408 9.829126 31,150 50 469 1216
2019-02-20 18:50:27 GMT 50.986267 9.815690 31,125 50 469 1216
2019-02-20 18:50:24 GMT 50.980408 9.804630 31,050 49 469 1408
2019-02-20 18:50:21 GMT 50.980408 9.804630 31,025 50 469 1280
2019-02-20 18:50:17 GMT 50.971348 9.787598 30,900 49 469 1472
2019-02-20 18:50:11 GMT 50.963573 9.772873 30,750 49 469 1472
2019-02-20 18:50:08 GMT 50.963573 9.772873 30,575 50 468 1280
2019-02-20 18:50:04 GMT 50.957150 9.760818 30,650 49 469 1344
2019-02-20 18:50:01 GMT 50.951752 9.750589 30,525 50 468 1280
2019-02-20 18:49:57 GMT 50.947998 9.743537 30,475 49 467 1280
2019-02-20 18:49:54 GMT 50.942139 9.732476 30,400 49 467 1280
2019-02-20 18:49:49 GMT 50.936188 9.721267 30,300 49 466 1408
2019-02-20 18:49:46 GMT 50.931335 9.712137 30,175 49 466 1536
2019-02-20 18:49:43 GMT 50.928543 9.706866 30,125 49 466 1536
2019-02-20 18:49:40 GMT 50.924377 9.699097 29,950 49 466 1664
2019-02-20 18:49:37 GMT 50.918976 9.688902 29,975 49 466 1728
2019-02-20 18:49:33 GMT 50.914230 9.680023 29,825 49 466 1536
2019-02-20 18:49:30 GMT 50.908401 9.669082 29,750 49 466 1216
2019-02-20 18:49:26 GMT 50.903709 9.660187 29,700 49 464 1536
2019-02-20 18:49:23 GMT 50.898834 9.651118 29,625 49 465 1088
2019-02-20 18:49:20 GMT 50.894817 9.643555 29,525 49 464 1216
2019-02-20 18:49:14 GMT 50.888718 9.632115 29,450 49 464 1600
2019-02-20 18:49:11 GMT 50.883636 9.622539 29,275 49 464 1600
2019-02-20 18:49:08 GMT 50.880203 9.616081 29,275 49 463 448
2019-02-20 18:49:05 GMT 50.874115 9.604649 29,125 49 464 1600
2019-02-20 18:49:02 GMT 50.869720 9.596409 29,075 49 464 1280
2019-02-20 18:48:59 GMT 50.866791 9.590988 29,000 49 452 1472
2019-02-20 18:48:55 GMT 50.862511 9.582977 29,000 49 461 -64
2019-02-20 18:48:52 GMT 50.857670 9.573898 29,000 49 463 64
2019-02-20 18:48:49 GMT 50.852177 9.563599 29,000 49 461 -64
2019-02-20 18:48:46 GMT 50.849304 9.558180 29,000 49 461 128
2019-02-20 18:48:43 GMT 50.845551 9.551276 29,000 49 461 192
2019-02-20 18:48:40 GMT 50.835278 9.532013 28,975 49 459 576
2019-02-20 18:48:37 GMT 50.829922 9.522095 28,950 49 459 640
2019-02-20 18:48:33 GMT 50.829922 9.522095 28,675 49 456 1152
2019-02-20 18:48:30 GMT 50.827038 9.516678 28,775 49 456 1152
2019-02-20 18:48:26 GMT 50.821312 9.505997 28,850 49 455 1344
2019-02-20 18:48:23 GMT 50.817215 9.498423 28,650 49 455 1344
2019-02-20 18:48:17 GMT 50.808929 9.482956 28,625 49 454 1408
2019-02-20 18:48:14 GMT 50.805817 9.477118 28,500 49 454 1408
2019-02-20 18:48:10 GMT 50.800224 9.466782 28,425 49 444 1472
2019-02-20 18:48:07 GMT 50.796032 9.458923 28,200 49 453 1408
2019-02-20 18:48:04 GMT 50.792267 9.451880 28,225 49 452 1472
2019-02-20 18:48:01 GMT 50.787094 9.442304 28,225 49 452 1472
2019-02-20 18:47:58 GMT 50.784534 9.437561 28,150 49 451 1472
2019-02-20 18:47:55 GMT 50.779953 9.429016 27,325 49 450 1344
2019-02-20 18:47:52 GMT 50.775223 9.420242 27,950 49 449 1472
2019-02-20 18:47:49 GMT 50.771164 9.412685 27,950 49 451 1408
2019-02-20 18:47:46 GMT 50.767548 9.405930 27,875 49 451 1408
2019-02-20 18:47:43 GMT 50.763336 9.398210 27,800 49 450 1408
2019-02-20 18:47:40 GMT 50.760132 9.392197 27,750 49 450 1408
2019-02-20 18:47:37 GMT 50.754730 9.382250 27,575 49 449 1472
2019-02-20 18:47:34 GMT 50.747223 9.368294 27,550 49 449 1472
2019-02-20 18:47:31 GMT 50.747223 9.368294 27,525 49 448 1472
2019-02-20 18:47:28 GMT 50.742783 9.360129 27,425 49 447 1472
2019-02-20 18:47:25 GMT 50.739704 9.354401 27,375 49 447 1472
2019-02-20 18:47:22 GMT 50.734352 9.344482 27,275 49 446 1536
2019-02-20 18:47:19 GMT 50.731842 9.339789 27,150 49 446 1536
2019-02-20 18:47:16 GMT 50.726212 9.329397 27,050 49 445 1664
2019-02-20 18:47:13 GMT 50.722595 9.322716 27,025 49 445 1664
2019-02-20 18:47:10 GMT 50.717789 9.313882 26,975 49 445 1664
2019-02-20 18:47:07 GMT 50.715637 9.309921 26,900 49 445 1664
2019-02-20 18:47:04 GMT 50.707630 9.295120 26,750 49 444 1536
2019-02-20 18:47:01 GMT 50.707630 9.295120 26,700 49 444 1536
2019-02-20 18:46:58 GMT 50.702602 9.285812 26,625 49 444 1472
2019-02-20 18:46:54 GMT 50.696869 9.275208 26,450 49 443 1472
2019-02-20 18:46:50 GMT 50.692223 9.266663 26,325 49 441 1600
2019-02-20 18:46:47 GMT 50.688904 9.260510 26,325 49 442 1536
2019-02-20 18:46:43 GMT 50.683472 9.250488 26,175 49 441 1600
2019-02-20 18:46:40 GMT 50.679234 9.242706 26,075 49 441 1664
2019-02-20 18:46:37 GMT 50.674759 9.234380 24,950 52 437 1664
2019-02-20 18:46:33 GMT 50.669998 9.225624 25,975 49 439 1600
2019-02-20 18:46:30 GMT 50.666012 9.218346 25,925 55 434 1664
2019-02-20 18:46:27 GMT 50.662079 9.211024 25,825 49 439 1600
2019-02-20 18:46:23 GMT 50.657227 9.202062 25,225 50 438 1600
2019-02-20 18:46:20 GMT 50.649948 9.188329 25,600 50 438 1600
2019-02-20 18:46:17 GMT 50.649948 9.188329 25,550 50 438 1664
2019-02-20 18:46:14 GMT 50.646515 9.181679 25,500 51 437 1728
2019-02-20 18:46:11 GMT 50.641571 9.171994 25,400 51 437 1728
2019-02-20 18:46:08 GMT 50.638268 9.165567 25,325 51 437 1728
2019-02-20 18:46:05 GMT 50.634521 9.158044 24,975 52 436 1664
2019-02-20 18:46:02 GMT 50.630215 9.149310 25,175 52 437 1600
2019-02-20 18:45:59 GMT 50.625652 9.139957 25,100 52 437 1600
2019-02-20 18:45:56 GMT 50.619049 9.125952 24,925 53 436 1664
2019-02-20 18:45:53 GMT 50.619049 9.125952 24,875 53 436 1728
2019-02-20 18:45:50 GMT 50.616573 9.120582 24,825 54 435 1792
2019-02-20 18:45:47 GMT 50.612942 9.112565 24,650 54 436 1728
2019-02-20 18:45:44 GMT 50.609436 9.104847 24,200 54 435 1728
2019-02-20 18:45:40 GMT 50.603912 9.092448 24,500 55 434 1664
2019-02-20 18:45:37 GMT 50.599777 9.083091 24,425 55 434 1664
2019-02-20 18:45:33 GMT 50.596325 9.075375 24,300 54 433 1728
2019-02-20 18:45:30 GMT 50.593323 9.068636 24,275 54 433 1728
2019-02-20 18:45:27 GMT 50.589294 9.059638 24,100 54 432 1728
2019-02-20 18:45:21 GMT 50.582451 9.044272 24,000 54 431 1728
2019-02-20 18:45:18 GMT 50.578167 9.034770 23,875 54 431 1600
2019-02-20 18:45:15 GMT 50.575195 9.028087 23,275 54 430 1536
2019-02-20 18:45:12 GMT 50.572025 9.020963 23,700 54 430 1536
2019-02-20 18:45:09 GMT 50.568604 9.013270 23,575 54 428 1600
2019-02-20 18:45:06 GMT 50.565182 9.005671 23,475 54 428 1600
2019-02-20 18:45:03 GMT 50.560867 8.995996 23,375 55 427 1664
2019-02-20 18:45:00 GMT 50.557919 8.989415 23,400 55 427 1664
2019-02-20 18:44:57 GMT 50.555740 8.984576 23,250 54 426 1792
2019-02-20 18:44:54 GMT 50.550980 8.973951 23,225 54 425 1792
2019-02-20 18:44:50 GMT 50.546906 8.964844 23,025 54 425 1856
2019-02-20 18:44:47 GMT 50.543858 8.958089 23,075 54 425 1856
2019-02-20 18:44:43 GMT 50.539490 8.948220 22,850 54 423 1728
2019-02-20 18:44:40 GMT 50.535187 8.938679 22,800 54 423 1728
2019-02-20 18:44:37 GMT 50.532455 8.932701 22,750 54 423 1728
2019-02-20 18:44:33 GMT 50.527287 8.921121 22,575 54 418 1600
2019-02-20 18:44:29 GMT 50.522919 8.911358 22,450 54 420 1664
2019-02-20 18:44:26 GMT 50.519001 8.902637 22,425 54 420 1664
2019-02-20 18:44:22 GMT 50.516006 8.895890 22,000 54 419 1600
2019-02-20 18:44:18 GMT 50.511227 8.885267 22,125 54 414 1856
2019-02-20 18:44:15 GMT 50.504059 8.869364 21,950 54 417 1728
2019-02-20 18:44:11 GMT 50.504059 8.869364 22,050 54 417 1728
2019-02-20 18:44:08 GMT 50.500076 8.860546 21,575 54 414 1856
2019-02-20 18:44:05 GMT 50.497421 8.854619 21,850 54 415 1856
2019-02-20 18:44:02 GMT 50.492798 8.844283 21,725 54 414 1856
2019-02-20 18:43:56 GMT 50.487167 8.831779 21,550 54 413 1792
2019-02-20 18:43:53 GMT 50.483505 8.823684 21,425 54 412 1728
2019-02-20 18:43:50 GMT 50.480301 8.816601 21,450 54 409 1920
2019-02-20 18:43:47 GMT 50.477009 8.809254 21,250 54 412 1728
2019-02-20 18:43:44 GMT 50.472633 8.799529 21,100 54 411 1728
2019-02-20 18:43:41 GMT 50.469223 8.792026 21,075 54 409 1920
2019-02-20 18:43:38 GMT 50.467514 8.788097 21,000 54 408 2048
2019-02-20 18:43:35 GMT 50.463791 8.779932 20,675 54 408 1984
2019-02-20 18:43:32 GMT 50.461029 8.773812 20,825 54 408 2048
2019-02-20 18:43:29 GMT 50.457230 8.765427 20,700 54 408 2048
2019-02-20 18:43:23 GMT 50.450912 8.751405 20,450 54 406 1920
2019-02-20 18:43:20 GMT 50.447205 8.743238 20,350 54 406 1920
2019-02-20 18:43:17 GMT 50.442982 8.733834 20,325 54 406 1984
2019-02-20 18:43:14 GMT 50.440838 8.729083 19,750 54 401 1728
2019-02-20 18:43:11 GMT 50.438141 8.723072 19,825 54 405 2112
2019-02-20 18:43:08 GMT 50.433392 8.712529 19,925 54 403 1728
2019-02-20 18:43:05 GMT 50.428177 8.701098 19,875 54 403 1728
2019-02-20 18:43:02 GMT 50.428177 8.701098 19,825 54 399 2048
2019-02-20 18:42:59 GMT 50.424637 8.693221 19,725 54 402 1728
2019-02-20 18:42:56 GMT 50.421009 8.685138 19,650 54 401 1728
2019-02-20 18:42:53 GMT 50.418633 8.679942 19,500 54 399 1984
2019-02-20 18:42:50 GMT 50.414246 8.670237 19,475 54 398 2240
2019-02-20 18:42:43 GMT 50.407974 8.656336 19,250 54 398 2240
2019-02-20 18:42:40 GMT 50.404449 8.648553 19,200 54 398 2304
2019-02-20 18:42:37 GMT 50.402016 8.643197 19,075 54 398 2240
2019-02-20 18:42:34 GMT 50.398708 8.635922 18,975 54 397 2240
2019-02-20 18:42:31 GMT 50.394241 8.626049 18,750 54 397 2240
2019-02-20 18:42:27 GMT 50.390854 8.618558 18,675 54 397 2240
2019-02-20 18:42:23 GMT 50.387119 8.610386 18,575 54 396 2304
2019-02-20 18:42:20 GMT 50.382881 8.601033 18,325 54 395 2304
2019-02-20 18:42:17 GMT 50.380135 8.595020 18,275 54 395 2368
2019-02-20 18:42:13 GMT 50.376553 8.587077 18,075 54 395 2368
2019-02-20 18:42:09 GMT 50.371849 8.576833 17,950 54 395 2368
2019-02-20 18:42:06 GMT 50.369339 8.571287 17,825 54 394 2304
2019-02-20 18:42:03 GMT 50.364586 8.560873 17,650 54 394 2240
2019-02-20 18:42:00 GMT 50.361282 8.553673 17,600 54 392 2240
2019-02-20 18:41:56 GMT 50.358257 8.546918 17,550 54 392 2240
2019-02-20 18:41:53 GMT 50.355057 8.539991 17,400 54 391 2240
2019-02-20 18:41:49 GMT 50.350529 8.530141 17,225 54 391 2240
2019-02-20 18:41:46 GMT 50.347595 8.523728 17,075 54 386 2304
2019-02-20 18:41:43 GMT 50.343979 8.515922 16,975 54 390 2112
2019-02-20 18:41:40 GMT 50.340893 8.509282 16,875 53 389 2048
2019-02-20 18:41:37 GMT 50.338051 8.503195 16,750 53 388 1984
2019-02-20 18:41:34 GMT 50.334419 8.495475 16,725 53 388 1984
2019-02-20 18:41:31 GMT 50.331394 8.488869 16,475 54 386 2112
2019-02-20 18:41:28 GMT 50.327297 8.480035 16,475 54 386 2304
2019-02-20 18:41:25 GMT 50.325249 8.475507 16,400 54 386 2304
2019-02-20 18:41:22 GMT 50.322224 8.468900 16,150 54 385 2368
2019-02-20 18:41:19 GMT 50.319244 8.462368 16,100 53 385 2368
2019-02-20 18:41:16 GMT 50.314777 8.452940 16,000 51 384 2304
2019-02-20 18:41:13 GMT 50.311661 8.446968 15,825 45 382 2240
2019-02-20 18:41:10 GMT 50.308731 8.441764 15,550 40 378 2112
2019-02-20 18:41:07 GMT 50.305573 8.436560 15,675 44 381 2176
2019-02-20 18:41:04 GMT 50.300079 8.428393 15,600 42 380 2176
2019-02-20 18:41:01 GMT 50.298111 8.425719 15,425 38 378 2176
2019-02-20 18:40:58 GMT 50.291592 8.417457 15,325 36 377 2304
2019-02-20 18:40:55 GMT 50.289310 8.414859 15,250 34 376 2368
2019-02-20 18:40:52 GMT 50.283726 8.408921 15,100 33 376 2432
2019-02-20 18:40:49 GMT 50.279442 8.404838 14,925 28 373 2368
2019-02-20 18:40:46 GMT 50.275719 8.401498 14,875 28 373 2368
2019-02-20 18:40:43 GMT 50.271881 8.398325 14,750 26 372 2304
2019-02-20 18:40:40 GMT 50.259979 8.389941 14,550 20 369 2176
2019-02-20 18:40:36 GMT 50.259979 8.389941 14,500 20 369 2176
2019-02-20 18:40:33 GMT 50.255238 8.387022 14,425 21 370 2176
2019-02-20 18:40:30 GMT 50.251373 8.384795 14,275 19 368 2304
2019-02-20 18:40:26 GMT 50.243832 8.380713 14,125 18 367 2368
2019-02-20 18:40:20 GMT 50.233749 8.375413 13,875 18 365 2432
2019-02-20 18:40:17 GMT 50.230377 8.373586 13,800 18 365 2432
2019-02-20 18:40:13 GMT 50.223679 8.370064 13,650 19 361 2368
2019-02-20 18:40:10 GMT 50.218880 8.367499 13,325 18 362 2368
2019-02-20 18:40:07 GMT 50.214455 8.365124 13,325 19 360 2432
2019-02-20 18:40:04 GMT 50.208572 8.362041 13,250 19 361 2368
2019-02-20 18:40:01 GMT 50.205093 8.360162 12,650 19 358 2688
2019-02-20 18:39:58 GMT 50.199886 8.357329 13,075 19 360 2432
2019-02-20 18:39:54 GMT 50.194199 8.354307 12,775 19 359 2624
2019-02-20 18:39:51 GMT 50.187607 8.350766 12,725 19 359 2624
2019-02-20 18:39:48 GMT 50.185223 8.349461 12,650 19 358 2624
2019-02-20 18:39:44 GMT 50.178497 8.345851 12,300 19 358 2688
2019-02-20 18:39:41 GMT 50.172867 8.342815 12,300 19 358 2688
2019-02-20 18:39:37 GMT 50.167694 8.340069 12,050 19 358 2560
2019-02-20 18:39:33 GMT 50.156113 8.333853 11,900 19 356 2432
2019-02-20 18:39:30 GMT 50.156113 8.333853 11,850 19 356 2368
2019-02-20 18:39:27 GMT 50.151764 8.331467 11,750 19 355 2240
2019-02-20 18:39:24 GMT 50.142151 8.326336 11,600 18 353 2176
2019-02-20 18:39:18 GMT 50.137985 8.324095 11,425 18 351 2112
2019-02-20 18:39:15 GMT 50.133545 8.321710 11,275 18 349 1728
2019-02-20 18:39:12 GMT 50.128658 8.319100 11,225 18 345 1408
2019-02-20 18:39:09 GMT 50.124069 8.316723 11,175 18 346 1536
2019-02-20 18:39:06 GMT 50.117859 8.313458 11,075 18 342 1216
2019-02-20 18:39:03 GMT 50.113358 8.311085 11,000 18 339 1024
2019-02-20 18:38:57 GMT 50.105988 8.307223 10,925 19 336 960
2019-02-20 18:38:54 GMT 50.102188 8.305086 10,875 19 332 1152
2019-02-20 18:38:50 GMT 50.096420 8.301906 10,825 20 329 1408
2019-02-20 18:38:47 GMT 50.091293 8.298942 10,650 19 324 1344
2019-02-20 18:38:44 GMT 50.087742 8.296979 10,650 19 321 1344
2019-02-20 18:38:40 GMT 50.082153 8.293861 10,575 18 319 1472
2019-02-20 18:38:37 GMT 50.077499 8.291560 10,475 16 315 1664
2019-02-20 18:38:34 GMT 50.068981 8.287923 10,325 14 312 1856
2019-02-20 18:38:27 GMT 50.063232 8.286077 10,050 8 307 2176
2019-02-20 18:38:24 GMT 50.058289 8.284848 10,050 7 306 2240
2019-02-20 18:38:21 GMT 50.054642 8.284211 9,975 5 305 2304
2019-02-20 18:38:17 GMT 50.048904 8.283691 9,725 357 300 2240
2019-02-20 18:38:14 GMT 50.044876 8.283836 9,650 352 298 2432
2019-02-20 18:38:11 GMT 50.039658 8.284776 9,575 351 297 2496
2019-02-20 18:38:08 GMT 50.037369 8.285498 9,450 342 294 3136
2019-02-20 18:38:05 GMT 50.033367 8.287032 9,300 344 295 3072
2019-02-20 18:38:02 GMT 50.026703 8.290702 9,025 337 294 3456
2019-02-20 18:37:59 GMT 50.025330 8.291570 9,025 338 294 3392
2019-02-20 18:37:54 GMT 50.019058 8.295834 8,650 336 296 3392
2019-02-20 18:37:51 GMT 50.015213 8.298581 8,425 336 297 3008
2019-02-20 18:37:48 GMT 50.011597 8.301111 8,000 336 296 2688
2019-02-20 18:37:45 GMT 50.002831 8.307149 7,950 337 294 1472
2019-02-20 18:37:41 GMT 50.002831 8.307149 8,075 337 294 1664
2019-02-20 18:37:37 GMT 49.997726 8.310507 7,975 337 289 1088
2019-02-20 18:37:34 GMT 49.994156 8.312892 7,925 338 286 1024
2019-02-20 18:37:31 GMT 49.990356 8.315349 7,850 338 281 1216
2019-02-20 18:37:28 GMT 49.986877 8.317662 7,825 338 280 1344
2019-02-20 18:37:23 GMT 49.980995 8.321179 7,575 342 274 2112
2019-02-20 18:37:20 GMT 49.977505 8.323109 7,575 342 273 2240
2019-02-20 18:37:17 GMT 49.974014 8.324890 7,500 343 274 2240
2019-02-20 18:37:14 GMT 49.969685 8.326969 7,350 345 273 2240
2019-02-20 18:37:08 GMT 49.963448 8.329641 7,025 346 272 1664
2019-02-20 18:37:05 GMT 49.958046 8.331719 7,025 346 271 1664
2019-02-20 18:37:01 GMT 49.955383 8.332768 6,950 346 271 1664
2019-02-20 18:36:56 GMT 49.943573 8.338189 6,700 342 266 2304
2019-02-20 18:36:52 GMT 49.943573 8.338189 6,600 338 266 2496
2019-02-20 18:36:49 GMT 49.940277 8.340285 6,500 336 265 2496
2019-02-20 18:36:45 GMT 49.935196 8.344405 6,300 328 264 2304
2019-02-20 18:36:42 GMT 49.932037 8.347658 6,175 323 264 1920

Making use of Plane Finder data

You are free to use the raw flight data, aircraft information and images provided in this report for your own purposes provided the data is correctly attributed to Plane Finder. We ask that you please credit Plane Finder and link to planefinder.net in close proximity to the content.

Optionally one of the following logos (no smaller then 150x24px) can be used and must link to planefinder.net

Embedding the Plane Finder map

You are welcome to embed the Plane Finder playback map on your website to offer visitors a more interactive experience. We suggest using the following HTML code:

<iframe src="//planefinder.net/data/report/CA932-B-2485-7700-squawk-2019-02-21/map" width="800" height="600" seamless="seamless"></iframe>

Where our data comes from

Plane Finder has a global network of data feeds and antenna radars that receive data broadcast directly from aircraft. The primary technologies used are ADS-B and MLAT. We also show feeds from the FAA and a FLARM glider feed.

Click here to find out more about the Plane Finder network.

How we collect our data